FIN79 EFHK-RJGG
Flight info
| Callsign | FIN79 |
|---|---|
| Flight time | N/A |
| Altitude | 34000 |
| Route | KOIVU Y123 LARTI DCT OSLAX DCT NEVTO P870 BERIL/N0491F330 DCT BOKSU/N0488F340 DCT TOXAR DCT ROBTU/N0491F330 DCT KENIN DCT REVDA DCT UDROS UM859 KARDE UN644 ROLIN N644 AGISO/N0486F350 N644 LAGAS M747 LUSAL N199 RASAM L88 METKA B476 TIMGA A480 OTBOR/K0904F350 N147 TRK Z621 ARBOL M610 UNADA/K0895F370 M610 RULAD/K0895S1130 A343 POSOT B215 FKG W188 GOVSA W66 DKO W69 BIKUT/K0906S1190 W69 HUR B339 LADIX W34 VAPGU W100 ORAVA W201 UNSEK A326 DONVO G597 AGAVO/N0477F390 Y644 EGOBA Y697 LANAT Y51 SAMON Y511 CHESS |
| Aircraft | A359/H-SDE2E3GHIJ3J4J5LM1ORWXY/LB1D1 |
Departure
| Time | N/A |
|---|---|
| Airport | Helsinki Vantaa Airport (EFHK) |
Arrival
| Time | 2026-04-27 19:34 |
|---|---|
| Airport | Chubu Centrair International Airport (RJGG) |
| Time | Latitude | Longitude | Altitude | Speed | Heading |
|---|---|---|---|---|---|
| 2026-04-27 10:38 | 41.84760 | 39.42622 | 35201 ft | 507 kts | 93° |
| 2026-04-27 10:38 | 41.84598 | 39.47353 | 35201 ft | 507 kts | 93° |
| 2026-04-27 10:38 | 41.84271 | 39.56793 | 35196 ft | 507 kts | 93° |
| 2026-04-27 10:39 | 41.83935 | 39.66230 | 35199 ft | 507 kts | 94° |
| 2026-04-27 10:39 | 41.83597 | 39.75530 | 35194 ft | 506 kts | 94° |
| 2026-04-27 10:40 | 41.83247 | 39.84946 | 35189 ft | 505 kts | 94° |
| 2026-04-27 10:40 | 41.82890 | 39.94311 | 35189 ft | 505 kts | 94° |
| 2026-04-27 10:41 | 41.82524 | 40.03746 | 35188 ft | 505 kts | 94° |
| 2026-04-27 10:41 | 41.82153 | 40.13118 | 35185 ft | 504 kts | 94° |
| 2026-04-27 10:42 | 41.81778 | 40.22496 | 35185 ft | 503 kts | 94° |
| 2026-04-27 10:42 | 41.81388 | 40.31835 | 35182 ft | 503 kts | 94° |
| 2026-04-27 10:43 | 41.80990 | 40.41189 | 35182 ft | 503 kts | 94° |
| 2026-04-27 10:43 | 41.80587 | 40.50548 | 35179 ft | 503 kts | 94° |
| 2026-04-27 10:44 | 41.80176 | 40.59901 | 35177 ft | 503 kts | 94° |
| 2026-04-27 10:44 | 41.79762 | 40.69204 | 35179 ft | 503 kts | 95° |
| 2026-04-27 10:45 | 41.79309 | 40.78610 | 35178 ft | 503 kts | 95° |
| 2026-04-27 10:45 | 41.78840 | 40.87925 | 35178 ft | 504 kts | 95° |
| 2026-04-27 10:46 | 41.78365 | 40.97292 | 35175 ft | 503 kts | 95° |
| 2026-04-27 10:46 | 41.77888 | 41.06639 | 35176 ft | 502 kts | 95° |
| 2026-04-27 10:47 | 41.77406 | 41.15949 | 35175 ft | 501 kts | 95° |
| 2026-04-27 10:47 | 41.76916 | 41.25255 | 35187 ft | 501 kts | 95° |
| 2026-04-27 10:48 | 41.76420 | 41.34555 | 35195 ft | 501 kts | 95° |
| 2026-04-27 10:48 | 41.75915 | 41.43868 | 35198 ft | 500 kts | 96° |
| 2026-04-27 10:49 | 41.75406 | 41.53115 | 35204 ft | 500 kts | 96° |
| 2026-04-27 10:49 | 41.74886 | 41.62420 | 35205 ft | 500 kts | 96° |
| 2026-04-27 10:50 | 41.74360 | 41.71699 | 35204 ft | 500 kts | 96° |
| 2026-04-27 10:50 | 41.73827 | 41.80984 | 35198 ft | 501 kts | 96° |
| 2026-04-27 10:51 | 41.73283 | 41.90286 | 35185 ft | 501 kts | 96° |
| 2026-04-27 10:51 | 41.72735 | 41.99569 | 35173 ft | 500 kts | 96° |
| 2026-04-27 10:52 | 41.72178 | 42.08873 | 35167 ft | 502 kts | 97° |
| 2026-04-27 10:52 | 41.71612 | 42.18190 | 35159 ft | 503 kts | 97° |
| 2026-04-27 10:53 | 41.70747 | 42.32138 | 35155 ft | 503 kts | 97° |
| 2026-04-27 10:54 | 41.70161 | 42.41458 | 35146 ft | 503 kts | 97° |
| 2026-04-27 10:54 | 41.69566 | 42.50781 | 35137 ft | 503 kts | 97° |
| 2026-04-27 10:55 | 41.68965 | 42.60089 | 35129 ft | 503 kts | 97° |
| 2026-04-27 10:55 | 41.68355 | 42.69441 | 35124 ft | 504 kts | 97° |
| 2026-04-27 10:56 | 41.67737 | 42.78769 | 35116 ft | 504 kts | 97° |
| 2026-04-27 10:56 | 41.67113 | 42.88089 | 35105 ft | 504 kts | 97° |
| 2026-04-27 10:57 | 41.66482 | 42.97395 | 35101 ft | 504 kts | 97° |
| 2026-04-27 10:57 | 41.65837 | 43.06714 | 35096 ft | 504 kts | 97° |
| 2026-04-27 10:58 | 41.65184 | 43.16045 | 35096 ft | 504 kts | 97° |
| 2026-04-27 10:58 | 41.64523 | 43.25413 | 35096 ft | 505 kts | 97° |
| 2026-04-27 10:59 | 41.63859 | 43.34710 | 35099 ft | 506 kts | 98° |
| 2026-04-27 10:59 | 41.63180 | 43.44111 | 35093 ft | 506 kts | 98° |
| 2026-04-27 11:00 | 41.62154 | 43.58210 | 35096 ft | 510 kts | 98° |
| 2026-04-27 11:00 | 41.61459 | 43.67607 | 35097 ft | 511 kts | 98° |
| 2026-04-27 11:01 | 41.60754 | 43.77036 | 35067 ft | 511 kts | 98° |
| 2026-04-27 11:01 | 41.60040 | 43.86460 | 35062 ft | 513 kts | 99° |
| 2026-04-27 11:02 | 41.59316 | 43.95944 | 35053 ft | 513 kts | 99° |
| 2026-04-27 11:02 | 41.58588 | 44.05404 | 35041 ft | 513 kts | 99° |
| 2026-04-27 11:03 | 41.57845 | 44.14935 | 35027 ft | 513 kts | 99° |
| 2026-04-27 11:03 | 41.56778 | 44.24287 | 34997 ft | 508 kts | 109° |
| 2026-04-27 11:04 | 41.54753 | 44.33259 | 35004 ft | 506 kts | 112° |
| 2026-04-27 11:04 | 41.52543 | 44.42169 | 34995 ft | 506 kts | 112° |
| 2026-04-27 11:05 | 41.50306 | 44.51048 | 34988 ft | 506 kts | 112° |
| 2026-04-27 11:05 | 41.48072 | 44.59946 | 34989 ft | 506 kts | 112° |
| 2026-04-27 11:06 | 41.45842 | 44.68848 | 34973 ft | 505 kts | 112° |
| 2026-04-27 11:06 | 41.43613 | 44.77726 | 34975 ft | 505 kts | 112° |
| 2026-04-27 11:07 | 41.41387 | 44.86561 | 34975 ft | 505 kts | 112° |
| 2026-04-27 11:07 | 41.39152 | 44.95397 | 34958 ft | 502 kts | 113° |
| 2026-04-27 11:08 | 41.36925 | 45.04167 | 34956 ft | 501 kts | 113° |
| 2026-04-27 11:08 | 41.34685 | 45.12952 | 34948 ft | 500 kts | 113° |
| 2026-04-27 11:09 | 41.32448 | 45.21681 | 34945 ft | 500 kts | 113° |
| 2026-04-27 11:09 | 41.30187 | 45.30469 | 34944 ft | 500 kts | 113° |
| 2026-04-27 11:10 | 41.27928 | 45.39226 | 34925 ft | 501 kts | 113° |
| 2026-04-27 11:10 | 41.25669 | 45.47952 | 34937 ft | 502 kts | 113° |
| 2026-04-27 11:11 | 41.23377 | 45.56768 | 34928 ft | 503 kts | 113° |
| 2026-04-27 11:11 | 41.21088 | 45.65548 | 34915 ft | 504 kts | 113° |
| 2026-04-27 11:12 | 41.18795 | 45.74278 | 34922 ft | 504 kts | 113° |
| 2026-04-27 11:12 | 41.16473 | 45.83081 | 34897 ft | 503 kts | 113° |
| 2026-04-27 11:13 | 41.14154 | 45.91842 | 34899 ft | 504 kts | 113° |
| 2026-04-27 11:13 | 41.11837 | 46.00566 | 34895 ft | 504 kts | 114° |
| 2026-04-27 11:14 | 41.09507 | 46.09306 | 34896 ft | 504 kts | 114° |
| 2026-04-27 11:14 | 41.07165 | 46.18063 | 34884 ft | 503 kts | 114° |
| 2026-04-27 11:15 | 41.04820 | 46.26803 | 34884 ft | 503 kts | 114° |
| 2026-04-27 11:15 | 41.02480 | 46.35539 | 34883 ft | 503 kts | 114° |
| 2026-04-27 11:16 | 41.00152 | 46.44253 | 34866 ft | 504 kts | 114° |
| 2026-04-27 11:16 | 40.97809 | 46.52996 | 34873 ft | 503 kts | 114° |
| 2026-04-27 11:17 | 40.95456 | 46.61741 | 34870 ft | 503 kts | 114° |
| 2026-04-27 11:17 | 40.93101 | 46.70459 | 34872 ft | 503 kts | 114° |
| 2026-04-27 11:18 | 40.90755 | 46.79110 | 34869 ft | 503 kts | 114° |
| 2026-04-27 11:18 | 40.88397 | 46.87786 | 34868 ft | 502 kts | 114° |
| 2026-04-27 11:19 | 40.86016 | 46.96465 | 34876 ft | 502 kts | 114° |
| 2026-04-27 11:19 | 40.83629 | 47.05125 | 34863 ft | 502 kts | 114° |
| 2026-04-27 11:20 | 40.81242 | 47.13765 | 34867 ft | 502 kts | 114° |
| 2026-04-27 11:20 | 40.78823 | 47.22467 | 34865 ft | 502 kts | 114° |
| 2026-04-27 11:21 | 40.76409 | 47.31089 | 34838 ft | 502 kts | 114° |
| 2026-04-27 11:21 | 40.73996 | 47.39682 | 34839 ft | 504 kts | 114° |
| 2026-04-27 11:22 | 40.71565 | 47.48349 | 34852 ft | 504 kts | 114° |
| 2026-04-27 11:22 | 40.69123 | 47.57020 | 34855 ft | 504 kts | 114° |
| 2026-04-27 11:23 | 40.66680 | 47.65668 | 34867 ft | 504 kts | 114° |
| 2026-04-27 11:23 | 40.64227 | 47.74325 | 34859 ft | 504 kts | 114° |
| 2026-04-27 11:24 | 40.61773 | 47.82953 | 34867 ft | 504 kts | 114° |
| 2026-04-27 11:24 | 40.59414 | 47.91631 | 34865 ft | 507 kts | 109° |
| 2026-04-27 11:25 | 40.58525 | 48.00870 | 34872 ft | 514 kts | 93° |
| 2026-04-27 11:25 | 40.58662 | 48.10261 | 34868 ft | 517 kts | 91° |
| 2026-04-27 11:26 | 40.58972 | 48.19741 | 34878 ft | 517 kts | 90° |
| 2026-04-27 11:26 | 40.59266 | 48.29189 | 34877 ft | 517 kts | 91° |
| 2026-04-27 11:27 | 40.59519 | 48.38603 | 34885 ft | 517 kts | 91° |
| 2026-04-27 11:27 | 40.59752 | 48.48058 | 34873 ft | 517 kts | 91° |
| 2026-04-27 11:28 | 40.59973 | 48.57524 | 34891 ft | 517 kts | 91° |
| 2026-04-27 11:28 | 40.60192 | 48.66963 | 34893 ft | 517 kts | 91° |
| 2026-04-27 11:29 | 40.60402 | 48.76450 | 34895 ft | 517 kts | 91° |
| 2026-04-27 11:29 | 40.60603 | 48.85883 | 34898 ft | 517 kts | 91° |
| 2026-04-27 11:30 | 40.60796 | 48.95329 | 34900 ft | 518 kts | 91° |
| 2026-04-27 11:30 | 40.60982 | 49.04799 | 34904 ft | 519 kts | 91° |
| 2026-04-27 11:31 | 40.61161 | 49.14281 | 34903 ft | 520 kts | 91° |
| 2026-04-27 11:31 | 40.61380 | 49.23778 | 34908 ft | 520 kts | 89° |
| 2026-04-27 11:32 | 40.61937 | 49.33276 | 34909 ft | 521 kts | 87° |
| 2026-04-27 11:32 | 40.62467 | 49.41219 | 34916 ft | 521 kts | 88° |
| 2026-04-27 11:33 | 40.63147 | 49.52317 | 34918 ft | 521 kts | 88° |
| 2026-04-27 11:33 | 40.63595 | 49.60258 | 34918 ft | 521 kts | 88° |
| 2026-04-27 11:34 | 40.64114 | 49.69755 | 34920 ft | 520 kts | 88° |
| 2026-04-27 11:34 | 40.64624 | 49.79250 | 34915 ft | 522 kts | 88° |
| 2026-04-27 11:35 | 40.65130 | 49.88784 | 34910 ft | 522 kts | 88° |
| 2026-04-27 11:35 | 40.65630 | 49.98317 | 34909 ft | 522 kts | 88° |
| 2026-04-27 11:36 | 40.66121 | 50.07813 | 34913 ft | 522 kts | 88° |
| 2026-04-27 11:36 | 40.66606 | 50.17389 | 34908 ft | 522 kts | 88° |
| 2026-04-27 11:37 | 40.67083 | 50.26930 | 34909 ft | 521 kts | 88° |
| 2026-04-27 11:37 | 40.67549 | 50.36412 | 34906 ft | 521 kts | 88° |
| 2026-04-27 11:38 | 40.68011 | 50.45931 | 34903 ft | 521 kts | 88° |
| 2026-04-27 11:38 | 40.68465 | 50.55465 | 34903 ft | 521 kts | 88° |
| 2026-04-27 11:39 | 40.68906 | 50.65005 | 34900 ft | 521 kts | 88° |
| 2026-04-27 11:39 | 40.69338 | 50.74508 | 34898 ft | 521 kts | 88° |
| 2026-04-27 11:40 | 40.69765 | 50.84040 | 34903 ft | 521 kts | 88° |
| 2026-04-27 11:40 | 40.70183 | 50.93553 | 34902 ft | 521 kts | 88° |
| 2026-04-27 11:41 | 40.70595 | 51.03077 | 34903 ft | 522 kts | 88° |
| 2026-04-27 11:41 | 40.71001 | 51.12645 | 34905 ft | 522 kts | 88° |
| 2026-04-27 11:42 | 40.71398 | 51.22199 | 34906 ft | 522 kts | 88° |
| 2026-04-27 11:42 | 40.71786 | 51.31729 | 34902 ft | 522 kts | 88° |
| 2026-04-27 11:43 | 40.72165 | 51.41231 | 34909 ft | 521 kts | 88° |
| 2026-04-27 11:43 | 40.72762 | 51.50754 | 34909 ft | 522 kts | 81° |
| 2026-04-27 11:44 | 40.74168 | 51.60176 | 34911 ft | 522 kts | 78° |
| 2026-04-27 11:44 | 40.75708 | 51.69500 | 34912 ft | 523 kts | 78° |
| 2026-04-27 11:45 | 40.77265 | 51.78844 | 34911 ft | 523 kts | 78° |
| 2026-04-27 11:45 | 40.78807 | 51.88231 | 34911 ft | 523 kts | 78° |
| 2026-04-27 11:46 | 40.80332 | 51.97629 | 34911 ft | 523 kts | 78° |
| 2026-04-27 11:46 | 40.81836 | 52.06965 | 34911 ft | 524 kts | 78° |
| 2026-04-27 11:47 | 40.83343 | 52.16375 | 34911 ft | 524 kts | 78° |
| 2026-04-27 11:47 | 40.84849 | 52.25823 | 34916 ft | 524 kts | 78° |
| 2026-04-27 11:48 | 40.86341 | 52.35229 | 34912 ft | 524 kts | 78° |
| 2026-04-27 11:48 | 40.87830 | 52.44678 | 34913 ft | 524 kts | 78° |
| 2026-04-27 11:49 | 40.89302 | 52.54063 | 34911 ft | 524 kts | 78° |
| 2026-04-27 11:49 | 40.90415 | 52.63581 | 34912 ft | 524 kts | 85° |
| 2026-04-27 11:50 | 40.90925 | 52.73206 | 34913 ft | 524 kts | 87° |
| 2026-04-27 11:50 | 40.91324 | 52.82810 | 34911 ft | 523 kts | 87° |
| 2026-04-27 11:51 | 40.91709 | 52.92436 | 34914 ft | 523 kts | 87° |
| 2026-04-27 11:52 | 40.92289 | 53.06789 | 34903 ft | 523 kts | 87° |
| 2026-04-27 11:52 | 40.92675 | 53.16385 | 34912 ft | 522 kts | 88° |
| 2026-04-27 11:53 | 40.93040 | 53.25947 | 34908 ft | 522 kts | 88° |
| 2026-04-27 11:53 | 40.93392 | 53.35546 | 34898 ft | 522 kts | 88° |
| 2026-04-27 11:54 | 40.93737 | 53.45112 | 34894 ft | 522 kts | 88° |
| 2026-04-27 11:54 | 40.94078 | 53.54690 | 34886 ft | 521 kts | 88° |
| 2026-04-27 11:55 | 40.94410 | 53.64249 | 34887 ft | 520 kts | 88° |
| 2026-04-27 11:55 | 40.94734 | 53.73812 | 34884 ft | 521 kts | 88° |
| 2026-04-27 11:56 | 40.95050 | 53.83378 | 34881 ft | 521 kts | 88° |
| 2026-04-27 11:56 | 40.95358 | 53.92919 | 34880 ft | 518 kts | 89° |
| 2026-04-27 11:57 | 40.95655 | 54.02388 | 34883 ft | 518 kts | 89° |
| 2026-04-27 11:57 | 40.95945 | 54.11890 | 34876 ft | 518 kts | 89° |
| 2026-04-27 11:58 | 40.96229 | 54.21419 | 34883 ft | 518 kts | 89° |
| 2026-04-27 11:58 | 40.96504 | 54.30947 | 34887 ft | 518 kts | 89° |
| 2026-04-27 11:59 | 40.96772 | 54.40473 | 34878 ft | 518 kts | 89° |
| 2026-04-27 11:59 | 40.97032 | 54.50019 | 34883 ft | 518 kts | 89° |
| 2026-04-27 12:00 | 40.97283 | 54.59497 | 34882 ft | 518 kts | 89° |
| 2026-04-27 12:00 | 40.97529 | 54.69057 | 34882 ft | 516 kts | 89° |
| 2026-04-27 12:01 | 40.97764 | 54.78526 | 34885 ft | 515 kts | 90° |
| 2026-04-27 12:01 | 40.97990 | 54.87970 | 34877 ft | 514 kts | 90° |
| 2026-04-27 12:02 | 40.98208 | 54.97377 | 34885 ft | 514 kts | 90° |
| 2026-04-27 12:02 | 40.98407 | 55.06858 | 34884 ft | 513 kts | 90° |
| 2026-04-27 12:03 | 40.98596 | 55.16267 | 34887 ft | 513 kts | 90° |
| 2026-04-27 12:03 | 40.98782 | 55.25690 | 34892 ft | 513 kts | 90° |
| 2026-04-27 12:04 | 40.98960 | 55.35128 | 34876 ft | 513 kts | 90° |
| 2026-04-27 12:04 | 40.99131 | 55.44584 | 34894 ft | 514 kts | 90° |
| 2026-04-27 12:05 | 40.99295 | 55.54018 | 34895 ft | 513 kts | 91° |
| 2026-04-27 12:05 | 40.99450 | 55.63443 | 34891 ft | 513 kts | 91° |
| 2026-04-27 12:06 | 40.99598 | 55.72844 | 34895 ft | 513 kts | 91° |
| 2026-04-27 12:06 | 40.99741 | 55.82309 | 34895 ft | 513 kts | 91° |
| 2026-04-27 12:07 | 40.99893 | 55.91678 | 34896 ft | 510 kts | 91° |
| 2026-04-27 12:07 | 41.00041 | 56.01062 | 34894 ft | 510 kts | 91° |
| 2026-04-27 12:08 | 41.00180 | 56.10489 | 34892 ft | 510 kts | 91° |
| 2026-04-27 12:08 | 41.00308 | 56.19835 | 34883 ft | 510 kts | 91° |
| 2026-04-27 12:09 | 41.00429 | 56.29200 | 34886 ft | 508 kts | 91° |
| 2026-04-27 12:09 | 41.00542 | 56.38586 | 34888 ft | 508 kts | 91° |
| 2026-04-27 12:10 | 41.00653 | 56.47887 | 34888 ft | 508 kts | 90° |
| 2026-04-27 12:10 | 41.01446 | 56.57193 | 34895 ft | 510 kts | 83° |
| 2026-04-27 12:11 | 41.02521 | 56.66420 | 34892 ft | 508 kts | 83° |
| 2026-04-27 12:11 | 41.03646 | 56.75684 | 34893 ft | 508 kts | 83° |
| 2026-04-27 12:12 | 41.04748 | 56.84886 | 34905 ft | 508 kts | 83° |
| 2026-04-27 12:12 | 41.05840 | 56.94168 | 34907 ft | 508 kts | 83° |
| 2026-04-27 12:13 | 41.06910 | 57.03362 | 34900 ft | 507 kts | 83° |
| 2026-04-27 12:13 | 41.07983 | 57.12653 | 34902 ft | 507 kts | 83° |
| 2026-04-27 12:14 | 41.09042 | 57.21884 | 34904 ft | 507 kts | 83° |
| 2026-04-27 12:14 | 41.10094 | 57.31121 | 34902 ft | 508 kts | 83° |
| 2026-04-27 12:15 | 41.11137 | 57.40353 | 34909 ft | 509 kts | 83° |
| 2026-04-27 12:15 | 41.12179 | 57.49636 | 34909 ft | 509 kts | 83° |
| 2026-04-27 12:16 | 41.13216 | 57.58940 | 34906 ft | 508 kts | 83° |
| 2026-04-27 12:16 | 41.14239 | 57.68201 | 34911 ft | 511 kts | 83° |
| 2026-04-27 12:17 | 41.15265 | 57.77553 | 34914 ft | 512 kts | 83° |
| 2026-04-27 12:17 | 41.16279 | 57.86868 | 34914 ft | 512 kts | 83° |
| 2026-04-27 12:18 | 41.17290 | 57.96219 | 34917 ft | 512 kts | 83° |
| 2026-04-27 12:18 | 41.18295 | 58.05599 | 34920 ft | 512 kts | 83° |
| 2026-04-27 12:19 | 41.19288 | 58.14902 | 34919 ft | 512 kts | 84° |
| 2026-04-27 12:19 | 41.20280 | 58.24297 | 34919 ft | 512 kts | 84° |
| 2026-04-27 12:20 | 41.21252 | 58.33598 | 34920 ft | 513 kts | 84° |
| 2026-04-27 12:20 | 41.22229 | 58.43013 | 34923 ft | 516 kts | 84° |
| 2026-04-27 12:21 | 41.23206 | 58.52488 | 34925 ft | 516 kts | 84° |
| 2026-04-27 12:21 | 41.24169 | 58.61908 | 34930 ft | 516 kts | 84° |
| 2026-04-27 12:22 | 41.25129 | 58.71374 | 34930 ft | 518 kts | 83° |
| 2026-04-27 12:22 | 41.26086 | 58.80892 | 34930 ft | 519 kts | 84° |
| 2026-04-27 12:23 | 41.27028 | 58.90340 | 34936 ft | 519 kts | 84° |
| 2026-04-27 12:23 | 41.27967 | 58.99845 | 34936 ft | 519 kts | 84° |
| 2026-04-27 12:24 | 41.28902 | 59.09389 | 34941 ft | 521 kts | 84° |
| 2026-04-27 12:24 | 41.29826 | 59.18908 | 34941 ft | 521 kts | 84° |
| 2026-04-27 12:25 | 41.30747 | 59.28464 | 34943 ft | 521 kts | 84° |
| 2026-04-27 12:25 | 41.31660 | 59.38044 | 34949 ft | 522 kts | 83° |
| 2026-04-27 12:26 | 41.32563 | 59.47597 | 34946 ft | 523 kts | 83° |
| 2026-04-27 12:26 | 41.33466 | 59.57227 | 34947 ft | 523 kts | 83° |
| 2026-04-27 12:27 | 41.34534 | 59.66723 | 34947 ft | 523 kts | 76° |
| 2026-04-27 12:27 | 41.36568 | 59.75990 | 34947 ft | 521 kts | 72° |
| 2026-04-27 12:28 | 41.38805 | 59.85198 | 34954 ft | 520 kts | 71° |
| 2026-04-27 12:28 | 41.41058 | 59.94353 | 34947 ft | 520 kts | 71° |
| 2026-04-27 12:29 | 41.43276 | 60.03466 | 34954 ft | 519 kts | 72° |
| 2026-04-27 12:29 | 41.45485 | 60.12635 | 34958 ft | 517 kts | 72° |
| 2026-04-27 12:30 | 41.47673 | 60.21776 | 34954 ft | 517 kts | 72° |
| 2026-04-27 12:30 | 41.49821 | 60.30875 | 34957 ft | 517 kts | 72° |
| 2026-04-27 12:31 | 41.51974 | 60.40065 | 34964 ft | 515 kts | 72° |
| 2026-04-27 12:31 | 41.54103 | 60.49178 | 34965 ft | 515 kts | 72° |
| 2026-04-27 12:32 | 41.56227 | 60.58296 | 34969 ft | 515 kts | 72° |
| 2026-04-27 12:32 | 41.58339 | 60.67374 | 34963 ft | 513 kts | 72° |
| 2026-04-27 12:33 | 41.60658 | 60.76379 | 34967 ft | 512 kts | 70° |
| 2026-04-27 12:33 | 41.63078 | 60.85354 | 34962 ft | 512 kts | 70° |
| 2026-04-27 12:34 | 41.65453 | 60.94280 | 34959 ft | 512 kts | 70° |
| 2026-04-27 12:34 | 41.67808 | 61.03281 | 34961 ft | 512 kts | 71° |
| 2026-04-27 12:35 | 41.69752 | 61.10773 | 34963 ft | 512 kts | 71° |
| 2026-04-27 12:35 | 41.72078 | 61.19774 | 34962 ft | 512 kts | 71° |
| 2026-04-27 12:36 | 41.74403 | 61.28798 | 34968 ft | 512 kts | 71° |
| 2026-04-27 12:36 | 41.76714 | 61.37796 | 34968 ft | 512 kts | 71° |
| 2026-04-27 12:37 | 41.79021 | 61.46814 | 34970 ft | 512 kts | 71° |
| 2026-04-27 12:37 | 41.81323 | 61.55844 | 34970 ft | 512 kts | 71° |
| 2026-04-27 12:38 | 41.83611 | 61.64854 | 34961 ft | 512 kts | 71° |
| 2026-04-27 12:38 | 41.85901 | 61.73907 | 34960 ft | 512 kts | 71° |
| 2026-04-27 12:39 | 41.88180 | 61.82962 | 34962 ft | 512 kts | 72° |
| 2026-04-27 12:39 | 41.90445 | 61.92018 | 34966 ft | 513 kts | 72° |
| 2026-04-27 12:40 | 41.92708 | 62.01101 | 34966 ft | 513 kts | 72° |
| 2026-04-27 12:40 | 41.94967 | 62.10199 | 34964 ft | 513 kts | 72° |
| 2026-04-27 12:41 | 41.97213 | 62.19261 | 34967 ft | 513 kts | 72° |
| 2026-04-27 12:41 | 41.99470 | 62.28395 | 34964 ft | 514 kts | 72° |
| 2026-04-27 12:42 | 42.01714 | 62.37513 | 34969 ft | 514 kts | 72° |
| 2026-04-27 12:42 | 42.03953 | 62.46646 | 34966 ft | 514 kts | 72° |
| 2026-04-27 12:43 | 42.06183 | 62.55785 | 34967 ft | 514 kts | 72° |
| 2026-04-27 12:43 | 42.08395 | 62.64877 | 34966 ft | 514 kts | 72° |
| 2026-04-27 12:44 | 42.10611 | 62.74029 | 34965 ft | 514 kts | 72° |
| 2026-04-27 12:44 | 42.12823 | 62.83193 | 34971 ft | 514 kts | 72° |
| 2026-04-27 12:45 | 42.15024 | 62.92353 | 34966 ft | 514 kts | 72° |
| 2026-04-27 12:45 | 42.17218 | 63.01526 | 34972 ft | 514 kts | 72° |
| 2026-04-27 12:46 | 42.19407 | 63.10690 | 34973 ft | 515 kts | 72° |
| 2026-04-27 12:46 | 42.21596 | 63.19888 | 34971 ft | 515 kts | 72° |
| 2026-04-27 12:47 | 42.23774 | 63.29075 | 34976 ft | 515 kts | 72° |
| 2026-04-27 12:47 | 42.25949 | 63.38289 | 34981 ft | 515 kts | 72° |
| 2026-04-27 12:48 | 42.28120 | 63.47527 | 34978 ft | 516 kts | 72° |
| 2026-04-27 12:48 | 42.30282 | 63.56759 | 34978 ft | 516 kts | 73° |
| 2026-04-27 12:49 | 42.32428 | 63.65962 | 34977 ft | 516 kts | 73° |
| 2026-04-27 12:49 | 42.34584 | 63.75248 | 34980 ft | 517 kts | 73° |
| 2026-04-27 12:50 | 42.36725 | 63.84506 | 34978 ft | 517 kts | 73° |
| 2026-04-27 12:50 | 42.38867 | 63.93809 | 34977 ft | 517 kts | 73° |
| 2026-04-27 12:51 | 42.40993 | 64.03073 | 34983 ft | 517 kts | 73° |
| 2026-04-27 12:51 | 42.43096 | 64.12401 | 34983 ft | 518 kts | 73° |
| 2026-04-27 12:52 | 42.45178 | 64.21732 | 34976 ft | 518 kts | 73° |
| 2026-04-27 12:52 | 42.47271 | 64.31069 | 34977 ft | 518 kts | 73° |
| 2026-04-27 12:53 | 42.50406 | 64.45028 | 34977 ft | 518 kts | 73° |
| 2026-04-27 12:53 | 42.52496 | 64.54380 | 34977 ft | 518 kts | 73° |
| 2026-04-27 12:54 | 42.54577 | 64.63745 | 34985 ft | 518 kts | 73° |
| 2026-04-27 12:54 | 42.56642 | 64.73079 | 34981 ft | 519 kts | 73° |
| 2026-04-27 12:55 | 42.58709 | 64.82461 | 34986 ft | 519 kts | 73° |
| 2026-04-27 12:55 | 42.60771 | 64.91863 | 34980 ft | 519 kts | 73° |
| 2026-04-27 12:56 | 42.62821 | 65.01252 | 34980 ft | 520 kts | 73° |
| 2026-04-27 12:56 | 42.64874 | 65.10696 | 34978 ft | 521 kts | 74° |
| 2026-04-27 12:57 | 42.66915 | 65.20121 | 34984 ft | 521 kts | 74° |
| 2026-04-27 12:57 | 42.68936 | 65.29503 | 34976 ft | 521 kts | 74° |
| 2026-04-27 12:58 | 42.70976 | 65.39012 | 34977 ft | 521 kts | 74° |
| 2026-04-27 12:58 | 42.72988 | 65.48432 | 34974 ft | 522 kts | 74° |
| 2026-04-27 12:59 | 42.75005 | 65.57920 | 34977 ft | 522 kts | 74° |
| 2026-04-27 12:59 | 42.77016 | 65.67423 | 34975 ft | 522 kts | 74° |
| 2026-04-27 13:00 | 42.79009 | 65.76881 | 34983 ft | 523 kts | 74° |
| 2026-04-27 13:00 | 42.81012 | 65.86428 | 34982 ft | 523 kts | 74° |
| 2026-04-27 13:01 | 42.83002 | 65.95963 | 34976 ft | 523 kts | 74° |
| 2026-04-27 13:01 | 42.84976 | 66.05465 | 34974 ft | 524 kts | 74° |
| 2026-04-27 13:02 | 42.86956 | 66.15023 | 34975 ft | 524 kts | 75° |
| 2026-04-27 13:02 | 42.88922 | 66.24624 | 34972 ft | 524 kts | 75° |
| 2026-04-27 13:03 | 42.90871 | 66.34211 | 34969 ft | 525 kts | 75° |
| 2026-04-27 13:03 | 42.92824 | 66.43842 | 34971 ft | 526 kts | 75° |
| 2026-04-27 13:04 | 42.94757 | 66.53417 | 34973 ft | 526 kts | 75° |
| 2026-04-27 13:04 | 42.96695 | 66.63054 | 34971 ft | 526 kts | 75° |
| 2026-04-27 13:05 | 42.98623 | 66.72690 | 34971 ft | 527 kts | 75° |
| 2026-04-27 13:05 | 43.00539 | 66.82323 | 34969 ft | 527 kts | 75° |
| 2026-04-27 13:06 | 43.02446 | 66.91955 | 34972 ft | 527 kts | 75° |
| 2026-04-27 13:06 | 43.04359 | 67.01655 | 34970 ft | 528 kts | 75° |
| 2026-04-27 13:07 | 43.06254 | 67.11317 | 34968 ft | 528 kts | 75° |
| 2026-04-27 13:07 | 43.08152 | 67.21048 | 34969 ft | 528 kts | 76° |
| 2026-04-27 13:08 | 43.10044 | 67.30793 | 34974 ft | 529 kts | 76° |
| 2026-04-27 13:08 | 43.11920 | 67.40505 | 34979 ft | 530 kts | 76° |
| 2026-04-27 13:09 | 43.13793 | 67.50222 | 34980 ft | 530 kts | 76° |
| 2026-04-27 13:09 | 43.15663 | 67.59989 | 34980 ft | 530 kts | 76° |
| 2026-04-27 13:10 | 43.17522 | 67.69751 | 34989 ft | 530 kts | 76° |
| 2026-04-27 13:10 | 43.19375 | 67.79527 | 34985 ft | 530 kts | 76° |
| 2026-04-27 13:11 | 43.21220 | 67.89295 | 34982 ft | 530 kts | 76° |
| 2026-04-27 13:11 | 43.23056 | 67.99097 | 34991 ft | 531 kts | 76° |
| 2026-04-27 13:12 | 43.24883 | 68.08902 | 34991 ft | 531 kts | 76° |
| 2026-04-27 13:12 | 43.26694 | 68.18664 | 34994 ft | 531 kts | 76° |
| 2026-04-27 13:13 | 43.28513 | 68.28521 | 34997 ft | 531 kts | 76° |
| 2026-04-27 13:13 | 43.30312 | 68.38332 | 35005 ft | 532 kts | 77° |
| 2026-04-27 13:14 | 43.31663 | 68.48324 | 35017 ft | 531 kts | 83° |
| 2026-04-27 13:14 | 43.32725 | 68.58356 | 35024 ft | 530 kts | 83° |
| 2026-04-27 13:15 | 43.33619 | 68.68338 | 35018 ft | 530 kts | 85° |
| 2026-04-27 13:15 | 43.34387 | 68.78387 | 35021 ft | 530 kts | 85° |
| 2026-04-27 13:16 | 43.35191 | 68.88475 | 35020 ft | 530 kts | 85° |
| 2026-04-27 13:16 | 43.36026 | 68.98545 | 35024 ft | 530 kts | 85° |
| 2026-04-27 13:17 | 43.36863 | 69.08599 | 35042 ft | 531 kts | 85° |
| 2026-04-27 13:17 | 43.37695 | 69.18693 | 35039 ft | 531 kts | 85° |
| 2026-04-27 13:18 | 43.38559 | 69.28738 | 35037 ft | 531 kts | 84° |
| 2026-04-27 13:18 | 43.39436 | 69.38784 | 35043 ft | 531 kts | 85° |
| 2026-04-27 13:19 | 43.40304 | 69.48881 | 35049 ft | 531 kts | 85° |
| 2026-04-27 13:19 | 43.41159 | 69.58998 | 35049 ft | 531 kts | 85° |
| 2026-04-27 13:20 | 43.42002 | 69.69101 | 35061 ft | 531 kts | 85° |
| 2026-04-27 13:20 | 43.42842 | 69.79197 | 35063 ft | 532 kts | 85° |
| 2026-04-27 13:21 | 43.43704 | 69.89272 | 35068 ft | 532 kts | 85° |
| 2026-04-27 13:21 | 43.44569 | 69.99404 | 35072 ft | 532 kts | 85° |
| 2026-04-27 13:22 | 43.45420 | 70.09521 | 35076 ft | 532 kts | 85° |
| 2026-04-27 13:22 | 43.46260 | 70.19652 | 35072 ft | 533 kts | 85° |
| 2026-04-27 13:23 | 43.47087 | 70.29738 | 35074 ft | 533 kts | 85° |
| 2026-04-27 13:23 | 43.47910 | 70.39881 | 35076 ft | 533 kts | 85° |
| 2026-04-27 13:24 | 43.48724 | 70.50040 | 35070 ft | 534 kts | 85° |
| 2026-04-27 13:24 | 43.49530 | 70.60200 | 35070 ft | 534 kts | 85° |
| 2026-04-27 13:25 | 43.50322 | 70.70300 | 35071 ft | 534 kts | 86° |
| 2026-04-27 13:25 | 43.51109 | 70.80469 | 35068 ft | 534 kts | 86° |
| 2026-04-27 13:26 | 43.51889 | 70.90624 | 35064 ft | 535 kts | 86° |
| 2026-04-27 13:26 | 43.52650 | 71.00823 | 35073 ft | 535 kts | 86° |
| 2026-04-27 13:27 | 43.53393 | 71.10989 | 35065 ft | 534 kts | 86° |
| 2026-04-27 13:27 | 43.54136 | 71.21236 | 35063 ft | 534 kts | 86° |
| 2026-04-27 13:28 | 43.54864 | 71.31380 | 35068 ft | 534 kts | 86° |
| 2026-04-27 13:28 | 43.55585 | 71.41541 | 35065 ft | 534 kts | 86° |
| 2026-04-27 13:29 | 43.56299 | 71.51726 | 35055 ft | 534 kts | 86° |
| 2026-04-27 13:29 | 43.57004 | 71.61926 | 35054 ft | 535 kts | 86° |
| 2026-04-27 13:30 | 43.57703 | 71.72179 | 35063 ft | 535 kts | 86° |
| 2026-04-27 13:30 | 43.58390 | 71.82388 | 35060 ft | 535 kts | 87° |
| 2026-04-27 13:31 | 43.59069 | 71.92606 | 35058 ft | 535 kts | 87° |
| 2026-04-27 13:31 | 43.59738 | 72.02824 | 35052 ft | 536 kts | 87° |
| 2026-04-27 13:32 | 43.60396 | 72.13007 | 35054 ft | 536 kts | 87° |
| 2026-04-27 13:32 | 43.61047 | 72.23231 | 35055 ft | 536 kts | 87° |
| 2026-04-27 13:33 | 43.61691 | 72.33493 | 35044 ft | 537 kts | 87° |
| 2026-04-27 13:33 | 43.62326 | 72.43750 | 35062 ft | 537 kts | 87° |
| 2026-04-27 13:34 | 43.62952 | 72.54019 | 35063 ft | 537 kts | 87° |
| 2026-04-27 13:34 | 43.63571 | 72.64319 | 35057 ft | 538 kts | 88° |
| 2026-04-27 13:35 | 43.64078 | 72.72880 | 35060 ft | 538 kts | 88° |
| 2026-04-27 13:35 | 43.64778 | 72.84888 | 35060 ft | 538 kts | 88° |
| 2026-04-27 13:36 | 43.65368 | 72.95188 | 35049 ft | 538 kts | 88° |
| 2026-04-27 13:36 | 43.65947 | 73.05435 | 35057 ft | 538 kts | 88° |
| 2026-04-27 13:37 | 43.66428 | 73.14089 | 35057 ft | 538 kts | 88° |
| 2026-04-27 13:37 | 43.66991 | 73.24372 | 35053 ft | 538 kts | 88° |
| 2026-04-27 13:38 | 43.67544 | 73.34642 | 35053 ft | 538 kts | 88° |
| 2026-04-27 13:38 | 43.68092 | 73.44985 | 35054 ft | 539 kts | 88° |
| 2026-04-27 13:39 | 43.68628 | 73.55299 | 35053 ft | 539 kts | 88° |
| 2026-04-27 13:39 | 43.69157 | 73.65634 | 35054 ft | 539 kts | 88° |
| 2026-04-27 13:40 | 43.69520 | 73.75928 | 35056 ft | 537 kts | 94° |
| 2026-04-27 13:40 | 43.69335 | 73.86210 | 35049 ft | 537 kts | 95° |
| 2026-04-27 13:41 | 43.69037 | 73.96508 | 35055 ft | 536 kts | 95° |
| 2026-04-27 13:41 | 43.68717 | 74.06808 | 35053 ft | 537 kts | 95° |
| 2026-04-27 13:42 | 43.68399 | 74.17057 | 35058 ft | 535 kts | 95° |
| 2026-04-27 13:42 | 43.68089 | 74.27314 | 35068 ft | 534 kts | 95° |
| 2026-04-27 13:43 | 43.67773 | 74.37588 | 35061 ft | 534 kts | 95° |
| 2026-04-27 13:43 | 43.67450 | 74.47813 | 35070 ft | 534 kts | 95° |
| 2026-04-27 13:44 | 43.67117 | 74.58056 | 35079 ft | 534 kts | 95° |
| 2026-04-27 13:44 | 43.66775 | 74.68286 | 35075 ft | 534 kts | 96° |
| 2026-04-27 13:45 | 43.66424 | 74.78510 | 35078 ft | 534 kts | 96° |
| 2026-04-27 13:45 | 43.66062 | 74.88784 | 35078 ft | 534 kts | 96° |
| 2026-04-27 13:46 | 43.65693 | 74.98990 | 35077 ft | 534 kts | 96° |
| 2026-04-27 13:46 | 43.65315 | 75.09209 | 35072 ft | 533 kts | 96° |
| 2026-04-27 13:47 | 43.64928 | 75.19420 | 35075 ft | 534 kts | 96° |
| 2026-04-27 13:47 | 43.64531 | 75.29668 | 35078 ft | 531 kts | 96° |
| 2026-04-27 13:48 | 43.64128 | 75.39802 | 35075 ft | 530 kts | 96° |
| 2026-04-27 13:48 | 43.63716 | 75.49954 | 35069 ft | 531 kts | 96° |
| 2026-04-27 13:49 | 43.63293 | 75.60169 | 35072 ft | 531 kts | 96° |
| 2026-04-27 13:49 | 43.62858 | 75.70359 | 35069 ft | 531 kts | 96° |
| 2026-04-27 13:50 | 43.62415 | 75.80514 | 35068 ft | 531 kts | 96° |
| 2026-04-27 13:50 | 43.61964 | 75.90650 | 35067 ft | 532 kts | 96° |
| 2026-04-27 13:51 | 43.61502 | 76.00849 | 35069 ft | 533 kts | 96° |
| 2026-04-27 13:51 | 43.61030 | 76.11064 | 35067 ft | 533 kts | 96° |
| 2026-04-27 13:52 | 43.60551 | 76.21240 | 35067 ft | 533 kts | 96° |
| 2026-04-27 13:52 | 43.60060 | 76.31489 | 35067 ft | 533 kts | 96° |
| 2026-04-27 13:53 | 43.59794 | 76.46818 | 35064 ft | 534 kts | 91° |
| 2026-04-27 13:54 | 43.59849 | 76.57054 | 35062 ft | 534 kts | 91° |
| 2026-04-27 13:54 | 43.59845 | 76.67240 | 35062 ft | 533 kts | 92° |
| 2026-04-27 13:55 | 43.59788 | 76.77490 | 35061 ft | 533 kts | 92° |
| 2026-04-27 13:55 | 43.59704 | 76.87647 | 35052 ft | 533 kts | 92° |
| 2026-04-27 13:56 | 43.59603 | 76.97933 | 35059 ft | 533 kts | 92° |
| 2026-04-27 13:56 | 43.59506 | 77.08085 | 35058 ft | 533 kts | 92° |
| 2026-04-27 13:57 | 43.59394 | 77.18360 | 35062 ft | 533 kts | 93° |
| 2026-04-27 13:57 | 43.59093 | 77.28533 | 35066 ft | 532 kts | 95° |
| 2026-04-27 13:58 | 43.58691 | 77.38692 | 35060 ft | 533 kts | 95° |
| 2026-04-27 13:58 | 43.58300 | 77.48943 | 35058 ft | 533 kts | 95° |
| 2026-04-27 13:59 | 43.58028 | 77.59084 | 35053 ft | 533 kts | 92° |
| 2026-04-27 13:59 | 43.57939 | 77.69331 | 35042 ft | 533 kts | 92° |
| 2026-04-27 14:00 | 43.57847 | 77.79580 | 35042 ft | 533 kts | 92° |
| 2026-04-27 14:00 | 43.57716 | 77.89800 | 35053 ft | 533 kts | 92° |
| 2026-04-27 14:01 | 43.57560 | 77.99970 | 35045 ft | 533 kts | 92° |
| 2026-04-27 14:01 | 43.57394 | 78.10220 | 35040 ft | 533 kts | 92° |
| 2026-04-27 14:02 | 43.57222 | 78.20392 | 35035 ft | 533 kts | 92° |
| 2026-04-27 14:02 | 43.57038 | 78.30612 | 35026 ft | 533 kts | 92° |
| 2026-04-27 14:03 | 43.56845 | 78.40834 | 35021 ft | 533 kts | 92° |
| 2026-04-27 14:03 | 43.56644 | 78.51088 | 35023 ft | 533 kts | 93° |
| 2026-04-27 14:04 | 43.56436 | 78.61261 | 35027 ft | 533 kts | 93° |
| 2026-04-27 14:04 | 43.56216 | 78.71486 | 35019 ft | 533 kts | 92° |
| 2026-04-27 14:05 | 43.55987 | 78.81752 | 35022 ft | 535 kts | 92° |
| 2026-04-27 14:05 | 43.55751 | 78.91952 | 35009 ft | 535 kts | 93° |
| 2026-04-27 14:06 | 43.55505 | 79.02192 | 34993 ft | 535 kts | 93° |
| 2026-04-27 14:06 | 43.55248 | 79.12472 | 34997 ft | 534 kts | 92° |
| 2026-04-27 14:07 | 43.54985 | 79.22668 | 34992 ft | 534 kts | 92° |
| 2026-04-27 14:07 | 43.54717 | 79.32914 | 34988 ft | 534 kts | 92° |
| 2026-04-27 14:08 | 43.54434 | 79.43084 | 34985 ft | 534 kts | 93° |
| 2026-04-27 14:08 | 43.54138 | 79.53312 | 34981 ft | 531 kts | 92° |
| 2026-04-27 14:09 | 43.53839 | 79.63435 | 34983 ft | 530 kts | 92° |
| 2026-04-27 14:09 | 43.53532 | 79.73571 | 34979 ft | 530 kts | 93° |
| 2026-04-27 14:10 | 43.53216 | 79.83687 | 34997 ft | 530 kts | 92° |
| 2026-04-27 14:10 | 43.52891 | 79.93838 | 34996 ft | 531 kts | 92° |
| 2026-04-27 14:11 | 43.52554 | 80.04067 | 34996 ft | 531 kts | 92° |
| 2026-04-27 14:11 | 43.52211 | 80.14219 | 34993 ft | 531 kts | 92° |
| 2026-04-27 14:12 | 43.51859 | 80.24341 | 34992 ft | 531 kts | 92° |
| 2026-04-27 14:12 | 43.51497 | 80.34509 | 34993 ft | 530 kts | 92° |
| 2026-04-27 14:13 | 43.51128 | 80.44644 | 34995 ft | 530 kts | 92° |
| 2026-04-27 14:13 | 43.50750 | 80.54744 | 35014 ft | 530 kts | 92° |
| 2026-04-27 14:14 | 43.50362 | 80.64885 | 35007 ft | 529 kts | 92° |
| 2026-04-27 14:14 | 43.49968 | 80.75007 | 35125 ft | 528 kts | 92° |
| 2026-04-27 14:14 | 43.49837 | 80.80006 | 35433 ft | 525 kts | 91° |
| 2026-04-27 14:15 | 43.49763 | 80.85004 | 35672 ft | 523 kts | 90° |
| 2026-04-27 14:15 | 43.49710 | 80.90049 | 35841 ft | 523 kts | 90° |
| 2026-04-27 14:15 | 43.49659 | 80.95031 | 36019 ft | 522 kts | 90° |
| 2026-04-27 14:15 | 43.49599 | 80.99994 | 36220 ft | 522 kts | 90° |
| 2026-04-27 14:16 | 43.49528 | 81.05044 | 36349 ft | 522 kts | 91° |
| 2026-04-27 14:16 | 43.49448 | 81.10010 | 36486 ft | 522 kts | 91° |
| 2026-04-27 14:16 | 43.49359 | 81.15032 | 36616 ft | 522 kts | 91° |
| 2026-04-27 14:16 | 43.49268 | 81.19982 | 36770 ft | 522 kts | 91° |
| 2026-04-27 14:17 | 43.49174 | 81.25012 | 36929 ft | 521 kts | 91° |
| 2026-04-27 14:17 | 43.49078 | 81.29980 | 37057 ft | 521 kts | 91° |
| 2026-04-27 14:17 | 43.48980 | 81.35009 | 37096 ft | 523 kts | 91° |
| 2026-04-27 14:18 | 43.48776 | 81.45063 | 37081 ft | 525 kts | 91° |
| 2026-04-27 14:18 | 43.48565 | 81.55115 | 37071 ft | 525 kts | 91° |
| 2026-04-27 14:19 | 43.48346 | 81.65120 | 37070 ft | 525 kts | 91° |
| 2026-04-27 14:19 | 43.48116 | 81.75133 | 37064 ft | 525 kts | 91° |
| 2026-04-27 14:20 | 43.47879 | 81.85160 | 37052 ft | 524 kts | 91° |
| 2026-04-27 14:20 | 43.47631 | 81.95233 | 37054 ft | 525 kts | 91° |
| 2026-04-27 14:21 | 43.47376 | 82.05234 | 37056 ft | 525 kts | 91° |
| 2026-04-27 14:21 | 43.47111 | 82.15282 | 37049 ft | 525 kts | 91° |
| 2026-04-27 14:22 | 43.46839 | 82.25290 | 37052 ft | 524 kts | 91° |
| 2026-04-27 14:22 | 43.46557 | 82.35325 | 37053 ft | 525 kts | 91° |
| 2026-04-27 14:23 | 43.46267 | 82.45349 | 37054 ft | 525 kts | 92° |
| 2026-04-27 14:23 | 43.45967 | 82.55408 | 37052 ft | 526 kts | 92° |
| 2026-04-27 14:24 | 43.45656 | 82.65496 | 37048 ft | 526 kts | 92° |
| 2026-04-27 14:24 | 43.45340 | 82.75508 | 37056 ft | 526 kts | 92° |
| 2026-04-27 14:25 | 43.45011 | 82.85605 | 37051 ft | 526 kts | 92° |
| 2026-04-27 14:25 | 43.44678 | 82.95606 | 37071 ft | 526 kts | 92° |
| 2026-04-27 14:26 | 43.44333 | 83.05664 | 37077 ft | 526 kts | 92° |
| 2026-04-27 14:26 | 43.43980 | 83.15730 | 37074 ft | 526 kts | 92° |
| 2026-04-27 14:27 | 43.43617 | 83.25775 | 37088 ft | 524 kts | 92° |
| 2026-04-27 14:27 | 43.43251 | 83.35715 | 37098 ft | 524 kts | 92° |
| 2026-04-27 14:28 | 43.42706 | 83.45758 | 37099 ft | 524 kts | 96° |
| 2026-04-27 14:28 | 43.41801 | 83.55675 | 37105 ft | 524 kts | 96° |
| 2026-04-27 14:29 | 43.40870 | 83.65595 | 37127 ft | 522 kts | 96° |
| 2026-04-27 14:29 | 43.39992 | 83.75483 | 37124 ft | 522 kts | 96° |
| 2026-04-27 14:30 | 43.39131 | 83.85429 | 37135 ft | 522 kts | 96° |
| 2026-04-27 14:30 | 43.38271 | 83.95331 | 37145 ft | 521 kts | 96° |
| 2026-04-27 14:31 | 43.37405 | 84.05178 | 37144 ft | 520 kts | 96° |
| 2026-04-27 14:31 | 43.36525 | 84.15058 | 37156 ft | 520 kts | 96° |
| 2026-04-27 14:32 | 43.35636 | 84.24945 | 37174 ft | 520 kts | 96° |
| 2026-04-27 14:32 | 43.34744 | 84.34755 | 37173 ft | 520 kts | 96° |
| 2026-04-27 14:33 | 43.33834 | 84.44633 | 37198 ft | 520 kts | 96° |
| 2026-04-27 14:33 | 43.33055 | 84.52802 | 37216 ft | 520 kts | 96° |
| 2026-04-27 14:34 | 43.31945 | 84.64319 | 37220 ft | 520 kts | 96° |
| 2026-04-27 14:34 | 43.30995 | 84.74114 | 37228 ft | 519 kts | 96° |
| 2026-04-27 14:35 | 43.30036 | 84.83949 | 37246 ft | 519 kts | 96° |
| 2026-04-27 14:35 | 43.29232 | 84.92117 | 37246 ft | 520 kts | 96° |
| 2026-04-27 14:36 | 43.28095 | 85.03556 | 37261 ft | 520 kts | 97° |
| 2026-04-27 14:36 | 43.27270 | 85.11761 | 37256 ft | 518 kts | 97° |
| 2026-04-27 14:37 | 43.26286 | 85.21497 | 37266 ft | 518 kts | 97° |
| 2026-04-27 14:37 | 43.25291 | 85.31297 | 37262 ft | 518 kts | 97° |
| 2026-04-27 14:38 | 43.24286 | 85.41081 | 37271 ft | 519 kts | 97° |
| 2026-04-27 14:38 | 43.23273 | 85.50863 | 37263 ft | 517 kts | 97° |
| 2026-04-27 14:39 | 43.22255 | 85.60611 | 37265 ft | 515 kts | 97° |
| 2026-04-27 14:39 | 43.21237 | 85.70292 | 37274 ft | 515 kts | 97° |
| 2026-04-27 14:40 | 43.20203 | 85.80003 | 37282 ft | 516 kts | 97° |
| 2026-04-27 14:40 | 43.19366 | 85.89770 | 37281 ft | 514 kts | 89° |
| 2026-04-27 14:41 | 43.20307 | 85.99388 | 37293 ft | 509 kts | 70° |
| 2026-04-27 14:41 | 43.21626 | 86.03831 | 37293 ft | 505 kts | 59° |
| 2026-04-27 14:41 | 43.23394 | 86.08007 | 37293 ft | 502 kts | 55° |
| 2026-04-27 14:42 | 43.27203 | 86.15999 | 37290 ft | 502 kts | 53° |
| 2026-04-27 14:42 | 43.31130 | 86.23963 | 37301 ft | 501 kts | 53° |
| 2026-04-27 14:43 | 43.35021 | 86.31852 | 37299 ft | 501 kts | 53° |
| 2026-04-27 14:43 | 43.38910 | 86.39811 | 37303 ft | 502 kts | 53° |
| 2026-04-27 14:44 | 43.42783 | 86.47815 | 37297 ft | 502 kts | 53° |
| 2026-04-27 14:44 | 43.46663 | 86.55794 | 37273 ft | 502 kts | 53° |
| 2026-04-27 14:45 | 43.50544 | 86.63771 | 37274 ft | 501 kts | 53° |
| 2026-04-27 14:45 | 43.54422 | 86.71761 | 37260 ft | 501 kts | 53° |
| 2026-04-27 14:46 | 43.58238 | 86.79730 | 37232 ft | 501 kts | 54° |
| 2026-04-27 14:46 | 43.62044 | 86.87796 | 37245 ft | 502 kts | 54° |
| 2026-04-27 14:47 | 43.65832 | 86.95870 | 37214 ft | 502 kts | 54° |
| 2026-04-27 14:47 | 43.69635 | 87.03958 | 37213 ft | 502 kts | 54° |
| 2026-04-27 14:48 | 43.73433 | 87.12046 | 37187 ft | 502 kts | 54° |
| 2026-04-27 14:48 | 43.79125 | 87.24231 | 37164 ft | 502 kts | 54° |
| 2026-04-27 14:49 | 43.82907 | 87.32355 | 37151 ft | 502 kts | 54° |
| 2026-04-27 14:49 | 43.86658 | 87.40437 | 37150 ft | 501 kts | 55° |
| 2026-04-27 14:50 | 43.90423 | 87.48573 | 37148 ft | 501 kts | 55° |
| 2026-04-27 14:50 | 43.94331 | 87.56587 | 37148 ft | 499 kts | 50° |
| 2026-04-27 14:51 | 43.98594 | 87.64179 | 37147 ft | 499 kts | 49° |
| 2026-04-27 14:51 | 44.02869 | 87.71740 | 37159 ft | 499 kts | 49° |
| 2026-04-27 14:52 | 44.07090 | 87.79393 | 37144 ft | 498 kts | 50° |
| 2026-04-27 14:52 | 44.11262 | 87.87069 | 37159 ft | 498 kts | 50° |
| 2026-04-27 14:53 | 44.15338 | 87.94864 | 37141 ft | 500 kts | 56° |
| 2026-04-27 14:53 | 44.18100 | 88.03814 | 37156 ft | 505 kts | 73° |
| 2026-04-27 14:54 | 44.19697 | 88.13319 | 37151 ft | 507 kts | 76° |
| 2026-04-27 14:54 | 44.21092 | 88.22972 | 37159 ft | 507 kts | 77° |
| 2026-04-27 14:55 | 44.22467 | 88.32582 | 37143 ft | 507 kts | 77° |
| 2026-04-27 14:55 | 44.23867 | 88.42206 | 37143 ft | 507 kts | 76° |
| 2026-04-27 14:56 | 44.25272 | 88.51822 | 37130 ft | 506 kts | 76° |
| 2026-04-27 14:56 | 44.26674 | 88.61453 | 37131 ft | 506 kts | 76° |
| 2026-04-27 14:57 | 44.28066 | 88.71077 | 37126 ft | 506 kts | 76° |
| 2026-04-27 14:57 | 44.29448 | 88.80706 | 37121 ft | 506 kts | 76° |
| 2026-04-27 14:58 | 44.30822 | 88.90346 | 37119 ft | 506 kts | 76° |
| 2026-04-27 14:58 | 44.32181 | 88.99938 | 37115 ft | 505 kts | 76° |
| 2026-04-27 14:59 | 44.33544 | 89.09616 | 37117 ft | 505 kts | 76° |
| 2026-04-27 14:59 | 44.34887 | 89.19215 | 37121 ft | 505 kts | 76° |
| 2026-04-27 15:00 | 44.36223 | 89.28826 | 37126 ft | 505 kts | 76° |
| 2026-04-27 15:00 | 44.37556 | 89.38479 | 37123 ft | 505 kts | 76° |
| 2026-04-27 15:01 | 44.38876 | 89.48099 | 37121 ft | 505 kts | 76° |
| 2026-04-27 15:01 | 44.40185 | 89.57701 | 37131 ft | 505 kts | 76° |
| 2026-04-27 15:02 | 44.41095 | 89.67462 | 37125 ft | 508 kts | 88° |
| 2026-04-27 15:02 | 44.40074 | 89.77246 | 37131 ft | 512 kts | 103° |
| 2026-04-27 15:03 | 44.38099 | 89.86797 | 37130 ft | 513 kts | 106° |
| 2026-04-27 15:03 | 44.35962 | 89.96320 | 37128 ft | 513 kts | 106° |
| 2026-04-27 15:04 | 44.33844 | 90.05799 | 37135 ft | 513 kts | 105° |
| 2026-04-27 15:04 | 44.31732 | 90.15366 | 37136 ft | 513 kts | 105° |
| 2026-04-27 15:05 | 44.29647 | 90.24834 | 37142 ft | 513 kts | 105° |
| 2026-04-27 15:05 | 44.27539 | 90.34369 | 37152 ft | 513 kts | 105° |
| 2026-04-27 15:06 | 44.25419 | 90.43903 | 37151 ft | 513 kts | 105° |
| 2026-04-27 15:06 | 44.23304 | 90.53370 | 37154 ft | 513 kts | 105° |
| 2026-04-27 15:07 | 44.21173 | 90.62870 | 37167 ft | 514 kts | 105° |
| 2026-04-27 15:07 | 44.19029 | 90.72386 | 37167 ft | 514 kts | 105° |
| 2026-04-27 15:08 | 44.16890 | 90.81833 | 37168 ft | 514 kts | 105° |
| 2026-04-27 15:08 | 44.14731 | 90.91326 | 37166 ft | 514 kts | 105° |
| 2026-04-27 15:09 | 44.12562 | 91.00832 | 37176 ft | 514 kts | 105° |
| 2026-04-27 15:09 | 44.10406 | 91.10255 | 37188 ft | 514 kts | 105° |
| 2026-04-27 15:10 | 44.08223 | 91.19737 | 37187 ft | 513 kts | 105° |
| 2026-04-27 15:10 | 44.06037 | 91.29187 | 37202 ft | 514 kts | 105° |
| 2026-04-27 15:11 | 44.03852 | 91.38596 | 37208 ft | 514 kts | 105° |
| 2026-04-27 15:11 | 44.01649 | 91.48049 | 37196 ft | 514 kts | 106° |
| 2026-04-27 15:12 | 43.99423 | 91.57451 | 37217 ft | 514 kts | 105° |
| 2026-04-27 15:12 | 43.97177 | 91.66882 | 37224 ft | 515 kts | 105° |
| 2026-04-27 15:13 | 43.94922 | 91.76326 | 37231 ft | 515 kts | 106° |
| 2026-04-27 15:13 | 43.92661 | 91.85771 | 37233 ft | 515 kts | 106° |
| 2026-04-27 15:14 | 43.90411 | 91.95131 | 37246 ft | 514 kts | 105° |
| 2026-04-27 15:14 | 43.88139 | 92.04543 | 37243 ft | 514 kts | 105° |
| 2026-04-27 15:15 | 43.85866 | 92.13923 | 37250 ft | 514 kts | 105° |
| 2026-04-27 15:15 | 43.83583 | 92.23308 | 37248 ft | 514 kts | 105° |
| 2026-04-27 15:16 | 43.81291 | 92.32681 | 37250 ft | 514 kts | 105° |
| 2026-04-27 15:16 | 43.78999 | 92.42019 | 37251 ft | 515 kts | 105° |
| 2026-04-27 15:17 | 43.76680 | 92.51432 | 37261 ft | 515 kts | 105° |
| 2026-04-27 15:17 | 43.74363 | 92.60797 | 37264 ft | 515 kts | 105° |
| 2026-04-27 15:18 | 43.72035 | 92.70166 | 37259 ft | 515 kts | 105° |
| 2026-04-27 15:18 | 43.69708 | 92.79494 | 37274 ft | 514 kts | 105° |
| 2026-04-27 15:19 | 43.67363 | 92.88858 | 37271 ft | 514 kts | 105° |
| 2026-04-27 15:19 | 43.65023 | 92.98166 | 37284 ft | 514 kts | 105° |
| 2026-04-27 15:20 | 43.62743 | 93.07484 | 37304 ft | 514 kts | 104° |
| 2026-04-27 15:20 | 43.60534 | 93.16816 | 37292 ft | 513 kts | 104° |
| 2026-04-27 15:21 | 43.58295 | 93.26222 | 37294 ft | 513 kts | 104° |
| 2026-04-27 15:21 | 43.56058 | 93.35522 | 37297 ft | 514 kts | 104° |
| 2026-04-27 15:22 | 43.53787 | 93.44898 | 37300 ft | 515 kts | 104° |
| 2026-04-27 15:22 | 43.51512 | 93.54243 | 37306 ft | 515 kts | 104° |
| 2026-04-27 15:23 | 43.49238 | 93.63547 | 37305 ft | 515 kts | 104° |
| 2026-04-27 15:23 | 43.46946 | 93.72891 | 37307 ft | 515 kts | 104° |
| 2026-04-27 15:24 | 43.44659 | 93.82174 | 37326 ft | 515 kts | 105° |
| 2026-04-27 15:24 | 43.42355 | 93.91490 | 37300 ft | 514 kts | 105° |
| 2026-04-27 15:25 | 43.40047 | 94.00787 | 37295 ft | 514 kts | 105° |
| 2026-04-27 15:25 | 43.37729 | 94.10088 | 37306 ft | 514 kts | 105° |
| 2026-04-27 15:26 | 43.35389 | 94.19430 | 37309 ft | 514 kts | 105° |
| 2026-04-27 15:26 | 43.33064 | 94.28685 | 37300 ft | 514 kts | 105° |
| 2026-04-27 15:27 | 43.30729 | 94.37939 | 37299 ft | 514 kts | 105° |
| 2026-04-27 15:27 | 43.28382 | 94.47201 | 37292 ft | 514 kts | 105° |
| 2026-04-27 15:28 | 43.26028 | 94.56458 | 37292 ft | 514 kts | 105° |
| 2026-04-27 15:28 | 43.23664 | 94.65714 | 37291 ft | 513 kts | 106° |
| 2026-04-27 15:29 | 43.21305 | 94.74914 | 37267 ft | 512 kts | 106° |
| 2026-04-27 15:29 | 43.18936 | 94.84125 | 37267 ft | 512 kts | 106° |
| 2026-04-27 15:30 | 43.16570 | 94.93284 | 37255 ft | 512 kts | 106° |
| 2026-04-27 15:30 | 43.14033 | 95.02412 | 37264 ft | 514 kts | 113° |
| 2026-04-27 15:31 | 43.09936 | 95.10477 | 37246 ft | 520 kts | 133° |
| 2026-04-27 15:31 | 43.04261 | 95.16639 | 37251 ft | 522 kts | 144° |
| 2026-04-27 15:32 | 42.98269 | 95.22174 | 37239 ft | 523 kts | 146° |
| 2026-04-27 15:32 | 42.92198 | 95.27682 | 37239 ft | 523 kts | 145° |
| 2026-04-27 15:33 | 42.86185 | 95.33200 | 37241 ft | 523 kts | 145° |
| 2026-04-27 15:33 | 42.80177 | 95.38749 | 37242 ft | 520 kts | 145° |
| 2026-04-27 15:34 | 42.75179 | 95.43365 | 37243 ft | 519 kts | 145° |
| 2026-04-27 15:34 | 42.68198 | 95.49795 | 37240 ft | 519 kts | 145° |
| 2026-04-27 15:35 | 42.62213 | 95.55291 | 37251 ft | 521 kts | 146° |
| 2026-04-27 15:35 | 42.56217 | 95.60783 | 37251 ft | 521 kts | 146° |
| 2026-04-27 15:36 | 42.51212 | 95.65358 | 37258 ft | 521 kts | 146° |
| 2026-04-27 15:36 | 42.44204 | 95.71749 | 37277 ft | 522 kts | 146° |
| 2026-04-27 15:37 | 42.39193 | 95.76308 | 37259 ft | 520 kts | 146° |
| 2026-04-27 15:37 | 42.33213 | 95.81806 | 37265 ft | 519 kts | 145° |
| 2026-04-27 15:38 | 42.27270 | 95.87332 | 37270 ft | 519 kts | 145° |
| 2026-04-27 15:38 | 42.21318 | 95.92850 | 37270 ft | 521 kts | 146° |
| 2026-04-27 15:39 | 42.15324 | 95.98382 | 37273 ft | 522 kts | 146° |
| 2026-04-27 15:39 | 42.09347 | 96.03879 | 37276 ft | 522 kts | 146° |
| 2026-04-27 15:40 | 42.03345 | 96.09384 | 37285 ft | 522 kts | 146° |
| 2026-04-27 15:40 | 41.97358 | 96.14874 | 37277 ft | 519 kts | 145° |
| 2026-04-27 15:41 | 41.92081 | 96.21455 | 37282 ft | 518 kts | 127° |
| 2026-04-27 15:41 | 41.90120 | 96.25463 | 37277 ft | 516 kts | 116° |
| 2026-04-27 15:41 | 41.88717 | 96.29858 | 37278 ft | 514 kts | 105° |
| 2026-04-27 15:42 | 41.87737 | 96.39240 | 37282 ft | 508 kts | 86° |
| 2026-04-27 15:42 | 41.88066 | 96.48744 | 37287 ft | 507 kts | 84° |
| 2026-04-27 15:43 | 41.88553 | 96.58112 | 37275 ft | 506 kts | 84° |
| 2026-04-27 15:43 | 41.89007 | 96.67559 | 37276 ft | 506 kts | 84° |
| 2026-04-27 15:44 | 41.89410 | 96.76960 | 37273 ft | 506 kts | 84° |
| 2026-04-27 15:44 | 41.89792 | 96.86387 | 37280 ft | 506 kts | 85° |
| 2026-04-27 15:45 | 41.90165 | 96.95836 | 37273 ft | 506 kts | 85° |
| 2026-04-27 15:45 | 41.90531 | 97.05265 | 37268 ft | 506 kts | 85° |
| 2026-04-27 15:46 | 41.90891 | 97.14683 | 37271 ft | 506 kts | 85° |
| 2026-04-27 15:46 | 41.91242 | 97.24071 | 37269 ft | 506 kts | 85° |
| 2026-04-27 15:47 | 41.91586 | 97.33489 | 37273 ft | 506 kts | 85° |
| 2026-04-27 15:47 | 41.91925 | 97.42969 | 37273 ft | 506 kts | 85° |
| 2026-04-27 15:48 | 41.92254 | 97.52396 | 37273 ft | 506 kts | 85° |
| 2026-04-27 15:49 | 41.92733 | 97.66532 | 37276 ft | 506 kts | 85° |
| 2026-04-27 15:49 | 41.93041 | 97.75918 | 37277 ft | 506 kts | 85° |
| 2026-04-27 15:50 | 41.93343 | 97.85353 | 37285 ft | 505 kts | 86° |
| 2026-04-27 15:50 | 41.93636 | 97.94779 | 37268 ft | 503 kts | 86° |
| 2026-04-27 15:51 | 41.93922 | 98.04152 | 37267 ft | 502 kts | 86° |
| 2026-04-27 15:51 | 41.94199 | 98.13517 | 37281 ft | 503 kts | 86° |
| 2026-04-27 15:52 | 41.94468 | 98.22893 | 37265 ft | 503 kts | 86° |
| 2026-04-27 15:52 | 41.94730 | 98.32273 | 37266 ft | 503 kts | 86° |
| 2026-04-27 15:53 | 41.94985 | 98.41631 | 37272 ft | 503 kts | 86° |
| 2026-04-27 15:53 | 41.95232 | 98.51034 | 37257 ft | 504 kts | 86° |
| 2026-04-27 15:54 | 41.95471 | 98.60443 | 37258 ft | 504 kts | 86° |
| 2026-04-27 15:54 | 41.95702 | 98.69808 | 37255 ft | 503 kts | 86° |
| 2026-04-27 15:55 | 41.95927 | 98.79215 | 37269 ft | 506 kts | 87° |
| 2026-04-27 15:55 | 41.96145 | 98.88677 | 37269 ft | 507 kts | 87° |
| 2026-04-27 15:56 | 41.96355 | 98.98129 | 37252 ft | 507 kts | 87° |
| 2026-04-27 15:56 | 41.96557 | 99.07580 | 37252 ft | 507 kts | 87° |
| 2026-04-27 15:57 | 41.96752 | 99.17031 | 37261 ft | 508 kts | 88° |
| 2026-04-27 15:57 | 41.96940 | 99.26546 | 37259 ft | 509 kts | 88° |
| 2026-04-27 15:58 | 41.97119 | 99.36063 | 37247 ft | 509 kts | 88° |
| 2026-04-27 15:58 | 41.97291 | 99.45545 | 37239 ft | 509 kts | 88° |
| 2026-04-27 15:59 | 41.97455 | 99.55027 | 37245 ft | 511 kts | 88° |
| 2026-04-27 15:59 | 41.97613 | 99.64618 | 37241 ft | 511 kts | 88° |
| 2026-04-27 16:00 | 41.97761 | 99.74140 | 37245 ft | 511 kts | 88° |
| 2026-04-27 16:00 | 41.97902 | 99.83684 | 37238 ft | 511 kts | 88° |
| 2026-04-27 16:01 | 41.98036 | 99.93291 | 37242 ft | 514 kts | 88° |
| 2026-04-27 16:01 | 41.98161 | 100.02810 | 37235 ft | 512 kts | 89° |
| 2026-04-27 16:02 | 41.98279 | 100.12418 | 37236 ft | 511 kts | 89° |
| 2026-04-27 16:02 | 41.98388 | 100.21915 | 37239 ft | 512 kts | 89° |
| 2026-04-27 16:03 | 41.98490 | 100.31483 | 37243 ft | 514 kts | 89° |
| 2026-04-27 16:03 | 41.98585 | 100.41160 | 37241 ft | 515 kts | 89° |
| 2026-04-27 16:04 | 41.98671 | 100.50752 | 37245 ft | 515 kts | 89° |
| 2026-04-27 16:04 | 41.98749 | 100.60326 | 37243 ft | 516 kts | 89° |
| 2026-04-27 16:05 | 41.98819 | 100.70003 | 37244 ft | 520 kts | 89° |
| 2026-04-27 16:05 | 41.98882 | 100.79766 | 37243 ft | 521 kts | 89° |
| 2026-04-27 16:06 | 41.98937 | 100.89486 | 37246 ft | 520 kts | 89° |
| 2026-04-27 16:06 | 41.98976 | 100.99220 | 37241 ft | 520 kts | 91° |
| 2026-04-27 16:07 | 41.97886 | 101.08786 | 37247 ft | 519 kts | 108° |
| 2026-04-27 16:07 | 41.95584 | 101.17983 | 37249 ft | 518 kts | 111° |
| 2026-04-27 16:08 | 41.93086 | 101.27010 | 37249 ft | 518 kts | 112° |
| 2026-04-27 16:08 | 41.90557 | 101.36087 | 37249 ft | 520 kts | 111° |
| 2026-04-27 16:09 | 41.88044 | 101.45183 | 37249 ft | 522 kts | 111° |
| 2026-04-27 16:09 | 41.84261 | 101.58915 | 37246 ft | 522 kts | 111° |
| 2026-04-27 16:10 | 41.79217 | 101.77115 | 37249 ft | 525 kts | 112° |
| 2026-04-27 16:11 | 41.75360 | 101.90932 | 37255 ft | 527 kts | 112° |
| 2026-04-27 16:12 | 41.71495 | 102.04702 | 37259 ft | 527 kts | 112° |
| 2026-04-27 16:13 | 41.67617 | 102.18445 | 37249 ft | 529 kts | 112° |
| 2026-04-27 16:13 | 41.63695 | 102.32270 | 37258 ft | 529 kts | 112° |
| 2026-04-27 16:14 | 41.58441 | 102.50673 | 37254 ft | 531 kts | 112° |
| 2026-04-27 16:15 | 41.53154 | 102.69061 | 37265 ft | 532 kts | 113° |
| 2026-04-27 16:16 | 41.48076 | 102.87640 | 37268 ft | 535 kts | 110° |
| 2026-04-27 16:17 | 41.43243 | 103.06384 | 37278 ft | 537 kts | 112° |
| 2026-04-27 16:18 | 41.38003 | 103.25052 | 37283 ft | 541 kts | 112° |
| 2026-04-27 16:19 | 41.35369 | 103.34429 | 37281 ft | 541 kts | 112° |
| 2026-04-27 16:20 | 41.30098 | 103.53191 | 37303 ft | 542 kts | 112° |
| 2026-04-27 16:21 | 41.26113 | 103.67284 | 37299 ft | 545 kts | 112° |
| 2026-04-27 16:22 | 41.20757 | 103.86103 | 37300 ft | 545 kts | 112° |
| 2026-04-27 16:22 | 41.16704 | 104.00248 | 37300 ft | 547 kts | 113° |
| 2026-04-27 16:23 | 41.12624 | 104.14415 | 37301 ft | 547 kts | 113° |
| 2026-04-27 16:24 | 41.09908 | 104.23803 | 37283 ft | 547 kts | 113° |
| 2026-04-27 16:25 | 41.04402 | 104.42726 | 37313 ft | 553 kts | 113° |
| 2026-04-27 16:26 | 40.99011 | 104.61767 | 37306 ft | 553 kts | 112° |
| 2026-04-27 16:27 | 40.93735 | 104.80852 | 37317 ft | 553 kts | 112° |
| 2026-04-27 16:28 | 40.87030 | 105.04695 | 37315 ft | 557 kts | 112° |
| 2026-04-27 16:29 | 40.80217 | 105.28691 | 37310 ft | 557 kts | 113° |
| 2026-04-27 16:30 | 40.74722 | 105.47885 | 37308 ft | 560 kts | 113° |
| 2026-04-27 16:31 | 40.67792 | 105.71887 | 37295 ft | 564 kts | 113° |
| 2026-04-27 16:32 | 40.63573 | 105.86394 | 37305 ft | 566 kts | 114° |
| 2026-04-27 16:33 | 40.59344 | 106.00860 | 37317 ft | 566 kts | 114° |
| 2026-04-27 16:33 | 40.56498 | 106.10546 | 37311 ft | 569 kts | 114° |
| 2026-04-27 16:34 | 40.53639 | 106.20241 | 37311 ft | 569 kts | 114° |
| 2026-04-27 16:34 | 40.50769 | 106.29942 | 37317 ft | 569 kts | 114° |
| 2026-04-27 16:35 | 40.47895 | 106.39620 | 37314 ft | 570 kts | 114° |
| 2026-04-27 16:36 | 40.44022 | 106.52596 | 37313 ft | 572 kts | 114° |
| 2026-04-27 16:36 | 40.41126 | 106.62262 | 37316 ft | 572 kts | 114° |
| 2026-04-27 16:37 | 40.38194 | 106.72014 | 37327 ft | 573 kts | 114° |
| 2026-04-27 16:37 | 40.35276 | 106.81680 | 37316 ft | 575 kts | 114° |
| 2026-04-27 16:38 | 40.32460 | 106.91533 | 37319 ft | 577 kts | 107° |
| 2026-04-27 16:38 | 40.31696 | 106.96736 | 37320 ft | 578 kts | 95° |
| 2026-04-27 16:38 | 40.31654 | 107.01911 | 37322 ft | 576 kts | 83° |
| 2026-04-27 16:39 | 40.32675 | 107.12309 | 37331 ft | 576 kts | 77° |
| 2026-04-27 16:39 | 40.34033 | 107.22711 | 37331 ft | 576 kts | 77° |
| 2026-04-27 16:40 | 40.35384 | 107.33051 | 37336 ft | 577 kts | 77° |
| 2026-04-27 16:40 | 40.36675 | 107.43417 | 37345 ft | 577 kts | 77° |
| 2026-04-27 16:41 | 40.37931 | 107.53795 | 37341 ft | 577 kts | 78° |
| 2026-04-27 16:41 | 40.39175 | 107.64189 | 37340 ft | 578 kts | 78° |
| 2026-04-27 16:42 | 40.40411 | 107.74586 | 37361 ft | 577 kts | 77° |
| 2026-04-27 16:42 | 40.41639 | 107.84979 | 37343 ft | 574 kts | 77° |
| 2026-04-27 16:43 | 40.42850 | 107.95289 | 37344 ft | 574 kts | 77° |
| 2026-04-27 16:43 | 40.44060 | 108.05674 | 37351 ft | 574 kts | 77° |
| 2026-04-27 16:44 | 40.45248 | 108.15989 | 37350 ft | 574 kts | 77° |
| 2026-04-27 16:44 | 40.46438 | 108.26420 | 37352 ft | 574 kts | 78° |
| 2026-04-27 16:45 | 40.47604 | 108.36712 | 37358 ft | 574 kts | 78° |
| 2026-04-27 16:45 | 40.48770 | 108.47094 | 37380 ft | 575 kts | 77° |
| 2026-04-27 16:46 | 40.49928 | 108.57498 | 37351 ft | 573 kts | 77° |
| 2026-04-27 16:46 | 40.51072 | 108.67850 | 37361 ft | 572 kts | 77° |
| 2026-04-27 16:47 | 40.52202 | 108.78153 | 37374 ft | 572 kts | 77° |
| 2026-04-27 16:47 | 40.53327 | 108.88508 | 37356 ft | 572 kts | 77° |
| 2026-04-27 16:48 | 40.54446 | 108.98887 | 37369 ft | 572 kts | 77° |
| 2026-04-27 16:48 | 40.55552 | 109.09240 | 37358 ft | 573 kts | 77° |
| 2026-04-27 16:49 | 40.57192 | 109.24769 | 37377 ft | 573 kts | 77° |
| 2026-04-27 16:49 | 40.58272 | 109.35122 | 37370 ft | 569 kts | 77° |
| 2026-04-27 16:50 | 40.59335 | 109.45387 | 37368 ft | 569 kts | 78° |
| 2026-04-27 16:50 | 40.60397 | 109.55725 | 37374 ft | 570 kts | 78° |
| 2026-04-27 16:51 | 40.61450 | 109.66076 | 37374 ft | 570 kts | 78° |
| 2026-04-27 16:51 | 40.62494 | 109.76433 | 37370 ft | 570 kts | 78° |
| 2026-04-27 16:52 | 40.63527 | 109.86777 | 37374 ft | 571 kts | 78° |
| 2026-04-27 16:52 | 40.64498 | 109.97110 | 37394 ft | 573 kts | 82° |
| 2026-04-27 16:53 | 40.64672 | 110.07610 | 37361 ft | 572 kts | 86° |
| 2026-04-27 16:53 | 40.64627 | 110.18070 | 37358 ft | 572 kts | 87° |
| 2026-04-27 16:54 | 40.64536 | 110.28573 | 37359 ft | 574 kts | 88° |
| 2026-04-27 16:54 | 40.64448 | 110.39077 | 37355 ft | 574 kts | 88° |
| 2026-04-27 16:55 | 40.64362 | 110.49537 | 37365 ft | 574 kts | 88° |
| 2026-04-27 16:55 | 40.64275 | 110.60061 | 37356 ft | 574 kts | 88° |
| 2026-04-27 16:56 | 40.64181 | 110.70605 | 37354 ft | 575 kts | 88° |
| 2026-04-27 16:56 | 40.64073 | 110.81090 | 37362 ft | 575 kts | 88° |
| 2026-04-27 16:57 | 40.63955 | 110.91631 | 37345 ft | 576 kts | 88° |
| 2026-04-27 16:57 | 40.63830 | 111.02193 | 37343 ft | 577 kts | 88° |
| 2026-04-27 16:58 | 40.63694 | 111.12699 | 37404 ft | 577 kts | 88° |
| 2026-04-27 16:58 | 40.63552 | 111.23207 | 37345 ft | 573 kts | 88° |
| 2026-04-27 16:59 | 40.63398 | 111.33673 | 37344 ft | 573 kts | 88° |
| 2026-04-27 16:59 | 40.63231 | 111.44204 | 37338 ft | 573 kts | 89° |
| 2026-04-27 17:00 | 40.62966 | 111.59916 | 37344 ft | 573 kts | 89° |
| 2026-04-27 17:01 | 40.62779 | 111.70373 | 37343 ft | 573 kts | 89° |
| 2026-04-27 17:01 | 40.62583 | 111.80857 | 37349 ft | 573 kts | 89° |
| 2026-04-27 17:02 | 40.62381 | 111.91304 | 37342 ft | 575 kts | 89° |
| 2026-04-27 17:02 | 40.62182 | 112.01823 | 37340 ft | 575 kts | 89° |
| 2026-04-27 17:03 | 40.61947 | 112.12355 | 37343 ft | 575 kts | 89° |
| 2026-04-27 17:03 | 40.61701 | 112.22905 | 37351 ft | 576 kts | 90° |
| 2026-04-27 17:04 | 40.61449 | 112.33438 | 37332 ft | 573 kts | 90° |
| 2026-04-27 17:04 | 40.61192 | 112.43895 | 37356 ft | 572 kts | 89° |
| 2026-04-27 17:05 | 40.60888 | 112.54344 | 37365 ft | 573 kts | 91° |
| 2026-04-27 17:05 | 40.60285 | 112.64818 | 37358 ft | 575 kts | 93° |
| 2026-04-27 17:06 | 40.59602 | 112.75285 | 37357 ft | 575 kts | 94° |
| 2026-04-27 17:06 | 40.58744 | 112.85736 | 37353 ft | 576 kts | 95° |
| 2026-04-27 17:07 | 40.57979 | 112.96204 | 37350 ft | 576 kts | 94° |
| 2026-04-27 17:07 | 40.57285 | 113.06720 | 37354 ft | 577 kts | 93° |
| 2026-04-27 17:08 | 40.56590 | 113.17239 | 37349 ft | 577 kts | 94° |
| 2026-04-27 17:08 | 40.55877 | 113.27707 | 37345 ft | 577 kts | 94° |
| 2026-04-27 17:09 | 40.55143 | 113.38238 | 37342 ft | 577 kts | 94° |
| 2026-04-27 17:09 | 40.54401 | 113.48735 | 37349 ft | 578 kts | 94° |
| 2026-04-27 17:10 | 40.53649 | 113.59238 | 37340 ft | 579 kts | 94° |
| 2026-04-27 17:10 | 40.52883 | 113.69788 | 37348 ft | 577 kts | 94° |
| 2026-04-27 17:11 | 40.52120 | 113.80182 | 37337 ft | 575 kts | 94° |
| 2026-04-27 17:11 | 40.50951 | 113.95928 | 37332 ft | 576 kts | 94° |
| 2026-04-27 17:12 | 40.50044 | 114.11600 | 37322 ft | 576 kts | 91° |
| 2026-04-27 17:13 | 40.49679 | 114.22117 | 37327 ft | 577 kts | 91° |
| 2026-04-27 17:13 | 40.49274 | 114.32646 | 37326 ft | 578 kts | 91° |
| 2026-04-27 17:14 | 40.48815 | 114.43185 | 37328 ft | 578 kts | 92° |
| 2026-04-27 17:14 | 40.48333 | 114.53699 | 37321 ft | 579 kts | 92° |
| 2026-04-27 17:15 | 40.47838 | 114.64295 | 37316 ft | 579 kts | 92° |
| 2026-04-27 17:15 | 40.47339 | 114.74852 | 37317 ft | 579 kts | 92° |
| 2026-04-27 17:16 | 40.46834 | 114.85331 | 37314 ft | 579 kts | 92° |
| 2026-04-27 17:16 | 40.46313 | 114.95924 | 37315 ft | 579 kts | 92° |
| 2026-04-27 17:17 | 40.45788 | 115.06418 | 37305 ft | 579 kts | 92° |
| 2026-04-27 17:17 | 40.45250 | 115.16987 | 37291 ft | 578 kts | 93° |
| 2026-04-27 17:18 | 40.44427 | 115.32794 | 37298 ft | 579 kts | 93° |
| 2026-04-27 17:18 | 40.43868 | 115.43284 | 37291 ft | 580 kts | 93° |
| 2026-04-27 17:19 | 40.43294 | 115.53883 | 37290 ft | 581 kts | 93° |
| 2026-04-27 17:19 | 40.42543 | 115.64431 | 37286 ft | 581 kts | 96° |
| 2026-04-27 17:20 | 40.41625 | 115.74973 | 37281 ft | 582 kts | 96° |
| 2026-04-27 17:20 | 40.40714 | 115.85527 | 37277 ft | 583 kts | 96° |
| 2026-04-27 17:21 | 40.39827 | 115.96110 | 37266 ft | 583 kts | 95° |
| 2026-04-27 17:21 | 40.38948 | 116.06649 | 37257 ft | 581 kts | 95° |
| 2026-04-27 17:22 | 40.38056 | 116.17220 | 37248 ft | 579 kts | 96° |
| 2026-04-27 17:22 | 40.37164 | 116.27675 | 37245 ft | 580 kts | 96° |
| 2026-04-27 17:23 | 40.36257 | 116.38166 | 37228 ft | 579 kts | 96° |
| 2026-04-27 17:23 | 40.35337 | 116.48657 | 37240 ft | 579 kts | 96° |
| 2026-04-27 17:24 | 40.34023 | 116.58981 | 37218 ft | 578 kts | 109° |
| 2026-04-27 17:24 | 40.32536 | 116.63875 | 37224 ft | 574 kts | 121° |
| 2026-04-27 17:24 | 40.30420 | 116.68248 | 37230 ft | 566 kts | 133° |
| 2026-04-27 17:25 | 40.27727 | 116.71960 | 37231 ft | 555 kts | 146° |
| 2026-04-27 17:25 | 40.24631 | 116.74832 | 37223 ft | 542 kts | 159° |
| 2026-04-27 17:25 | 40.21247 | 116.76849 | 37230 ft | 527 kts | 170° |
| 2026-04-27 17:25 | 40.17760 | 116.78021 | 37220 ft | 516 kts | 179° |
| 2026-04-27 17:26 | 40.10734 | 116.79521 | 37232 ft | 511 kts | 182° |
| 2026-04-27 17:26 | 40.03708 | 116.80799 | 37235 ft | 511 kts | 182° |
| 2026-04-27 17:27 | 39.96663 | 116.82127 | 37235 ft | 511 kts | 181° |
| 2026-04-27 17:27 | 39.89613 | 116.83513 | 37241 ft | 512 kts | 181° |
| 2026-04-27 17:28 | 39.82590 | 116.84913 | 37237 ft | 512 kts | 181° |
| 2026-04-27 17:29 | 39.72029 | 116.87065 | 37258 ft | 511 kts | 181° |
| 2026-04-27 17:29 | 39.65001 | 116.88541 | 37246 ft | 511 kts | 182° |
| 2026-04-27 17:30 | 39.57994 | 116.89991 | 37248 ft | 511 kts | 182° |
| 2026-04-27 17:30 | 39.47467 | 116.92158 | 37248 ft | 511 kts | 183° |
| 2026-04-27 17:31 | 39.40437 | 116.93600 | 37246 ft | 511 kts | 183° |
| 2026-04-27 17:31 | 39.33443 | 116.95035 | 37228 ft | 511 kts | 183° |
| 2026-04-27 17:32 | 39.24086 | 116.97429 | 37244 ft | 530 kts | 172° |
| 2026-04-27 17:32 | 39.19557 | 117.00159 | 37247 ft | 553 kts | 158° |
| 2026-04-27 17:33 | 39.16447 | 117.03220 | 37245 ft | 570 kts | 144° |
| 2026-04-27 17:33 | 39.11790 | 117.11697 | 37245 ft | 595 kts | 116° |
| 2026-04-27 17:33 | 39.10527 | 117.16770 | 37252 ft | 599 kts | 104° |
| 2026-04-27 17:34 | 39.09946 | 117.20274 | 37232 ft | 601 kts | 102° |
| 2026-04-27 17:34 | 39.08332 | 117.32659 | 37229 ft | 604 kts | 99° |
| 2026-04-27 17:35 | 39.07813 | 117.41647 | 37234 ft | 603 kts | 90° |
| 2026-04-27 17:35 | 39.07658 | 117.52469 | 37234 ft | 603 kts | 89° |
| 2026-04-27 17:36 | 39.07564 | 117.63183 | 37240 ft | 603 kts | 89° |
| 2026-04-27 17:36 | 39.07452 | 117.73988 | 37243 ft | 604 kts | 89° |
| 2026-04-27 17:37 | 39.07312 | 117.84776 | 37246 ft | 604 kts | 89° |
| 2026-04-27 17:37 | 39.07156 | 117.95576 | 37246 ft | 604 kts | 90° |
| 2026-04-27 17:38 | 39.06495 | 118.06364 | 37250 ft | 604 kts | 100° |
| 2026-04-27 17:38 | 39.04979 | 118.16926 | 37246 ft | 602 kts | 102° |
| 2026-04-27 17:39 | 39.03273 | 118.27511 | 37244 ft | 600 kts | 103° |
| 2026-04-27 17:39 | 39.01562 | 118.37953 | 37228 ft | 600 kts | 102° |
| 2026-04-27 17:40 | 38.99850 | 118.48496 | 37235 ft | 600 kts | 102° |
| 2026-04-27 17:40 | 38.98152 | 118.58998 | 37232 ft | 600 kts | 102° |
| 2026-04-27 17:41 | 38.96450 | 118.69464 | 37229 ft | 601 kts | 103° |
| 2026-04-27 17:41 | 38.94732 | 118.79961 | 37230 ft | 601 kts | 103° |
| 2026-04-27 17:42 | 38.93000 | 118.90471 | 37227 ft | 601 kts | 103° |
| 2026-04-27 17:42 | 38.91260 | 119.00965 | 37224 ft | 602 kts | 103° |
| 2026-04-27 17:43 | 38.89521 | 119.11426 | 37220 ft | 602 kts | 103° |
| 2026-04-27 17:43 | 38.87751 | 119.21946 | 37221 ft | 602 kts | 103° |
| 2026-04-27 17:44 | 38.85976 | 119.32439 | 37220 ft | 603 kts | 103° |
| 2026-04-27 17:44 | 38.84190 | 119.42939 | 37215 ft | 604 kts | 103° |
| 2026-04-27 17:45 | 38.82395 | 119.53449 | 37213 ft | 604 kts | 103° |
| 2026-04-27 17:45 | 38.80589 | 119.63961 | 37211 ft | 605 kts | 104° |
| 2026-04-27 17:46 | 38.78770 | 119.74483 | 37212 ft | 605 kts | 104° |
| 2026-04-27 17:46 | 38.76944 | 119.85006 | 37204 ft | 605 kts | 103° |
| 2026-04-27 17:47 | 38.75184 | 119.95566 | 37203 ft | 606 kts | 103° |
| 2026-04-27 17:47 | 38.73450 | 120.06112 | 37213 ft | 606 kts | 103° |
| 2026-04-27 17:47 | 38.72207 | 120.11272 | 37199 ft | 599 kts | 117° |
| 2026-04-27 17:48 | 38.70211 | 120.15844 | 37152 ft | 587 kts | 133° |
| 2026-04-27 17:48 | 38.67523 | 120.19684 | 37196 ft | 569 kts | 148° |
| 2026-04-27 17:48 | 38.64379 | 120.22532 | 37198 ft | 547 kts | 163° |
| 2026-04-27 17:48 | 38.60963 | 120.24424 | 37201 ft | 534 kts | 170° |
| 2026-04-27 17:49 | 38.57548 | 120.26500 | 37195 ft | 550 kts | 161° |
| 2026-04-27 17:49 | 38.54417 | 120.29403 | 37198 ft | 572 kts | 146° |
| 2026-04-27 17:49 | 38.51746 | 120.33291 | 37201 ft | 589 kts | 131° |
| 2026-04-27 17:49 | 38.49750 | 120.37946 | 37200 ft | 601 kts | 115° |
| 2026-04-27 17:50 | 38.48581 | 120.43015 | 37191 ft | 606 kts | 100° |
| 2026-04-27 17:50 | 38.48859 | 120.53703 | 37193 ft | 598 kts | 70° |
| 2026-04-27 17:50 | 38.50236 | 120.58605 | 37199 ft | 589 kts | 60° |
| 2026-04-27 17:51 | 38.51456 | 120.63691 | 37191 ft | 602 kts | 76° |
| 2026-04-27 17:51 | 38.51798 | 120.68998 | 37198 ft | 607 kts | 90° |
| 2026-04-27 17:51 | 38.51472 | 120.74415 | 37305 ft | 608 kts | 98° |
| 2026-04-27 17:51 | 38.50808 | 120.79685 | 37536 ft | 607 kts | 101° |
| 2026-04-27 17:52 | 38.50020 | 120.84966 | 37773 ft | 605 kts | 102° |
| 2026-04-27 17:52 | 38.49229 | 120.90291 | 38072 ft | 604 kts | 101° |
| 2026-04-27 17:52 | 38.48514 | 120.95510 | 38439 ft | 600 kts | 99° |
| 2026-04-27 17:52 | 38.47857 | 121.00780 | 38666 ft | 598 kts | 98° |
| 2026-04-27 17:53 | 38.47255 | 121.06011 | 38776 ft | 598 kts | 98° |
| 2026-04-27 17:53 | 38.46682 | 121.11241 | 38894 ft | 598 kts | 97° |
| 2026-04-27 17:53 | 38.46118 | 121.16477 | 39027 ft | 597 kts | 98° |
| 2026-04-27 17:53 | 38.45428 | 121.21741 | 39154 ft | 597 kts | 101° |
| 2026-04-27 17:54 | 38.43710 | 121.32109 | 39182 ft | 599 kts | 103° |
| 2026-04-27 17:54 | 38.41904 | 121.42465 | 39180 ft | 599 kts | 103° |
| 2026-04-27 17:55 | 38.40151 | 121.52847 | 39165 ft | 599 kts | 103° |
| 2026-04-27 17:55 | 38.38417 | 121.63213 | 39177 ft | 599 kts | 103° |
| 2026-04-27 17:56 | 38.36678 | 121.73595 | 39172 ft | 600 kts | 103° |
| 2026-04-27 17:56 | 38.34928 | 121.83983 | 39158 ft | 600 kts | 103° |
| 2026-04-27 17:57 | 38.33173 | 121.94330 | 39163 ft | 601 kts | 103° |
| 2026-04-27 17:57 | 38.31391 | 122.04778 | 39157 ft | 601 kts | 103° |
| 2026-04-27 17:58 | 38.29622 | 122.15089 | 39160 ft | 601 kts | 103° |
| 2026-04-27 17:58 | 38.27821 | 122.25526 | 39158 ft | 601 kts | 103° |
| 2026-04-27 17:59 | 38.26220 | 122.35892 | 39148 ft | 599 kts | 101° |
| 2026-04-27 17:59 | 38.23503 | 122.45839 | 39143 ft | 588 kts | 124° |
| 2026-04-27 18:00 | 38.21207 | 122.50044 | 39131 ft | 577 kts | 137° |
| 2026-04-27 18:00 | 38.18545 | 122.53884 | 39133 ft | 575 kts | 140° |
| 2026-04-27 18:00 | 38.12971 | 122.61127 | 39142 ft | 574 kts | 143° |
| 2026-04-27 18:01 | 38.07303 | 122.68239 | 39134 ft | 575 kts | 143° |
| 2026-04-27 18:01 | 38.01665 | 122.75460 | 39132 ft | 576 kts | 142° |
| 2026-04-27 18:02 | 37.96067 | 122.82714 | 39131 ft | 576 kts | 142° |
| 2026-04-27 18:02 | 37.90465 | 122.89974 | 39124 ft | 576 kts | 142° |
| 2026-04-27 18:03 | 37.84857 | 122.97219 | 39115 ft | 576 kts | 142° |
| 2026-04-27 18:03 | 37.79265 | 123.04414 | 39123 ft | 577 kts | 142° |
| 2026-04-27 18:04 | 37.73633 | 123.11645 | 39121 ft | 577 kts | 142° |
| 2026-04-27 18:04 | 37.67992 | 123.18871 | 39118 ft | 577 kts | 142° |
| 2026-04-27 18:05 | 37.62359 | 123.26070 | 39121 ft | 577 kts | 142° |
| 2026-04-27 18:05 | 37.56806 | 123.33374 | 39116 ft | 584 kts | 136° |
| 2026-04-27 18:06 | 37.51776 | 123.41449 | 39082 ft | 587 kts | 134° |
| 2026-04-27 18:06 | 37.46848 | 123.49713 | 39110 ft | 591 kts | 133° |
| 2026-04-27 18:07 | 37.41959 | 123.57964 | 39109 ft | 591 kts | 133° |
| 2026-04-27 18:07 | 37.37026 | 123.66234 | 39110 ft | 590 kts | 133° |
| 2026-04-27 18:08 | 37.32086 | 123.74464 | 39104 ft | 590 kts | 133° |
| 2026-04-27 18:08 | 37.27128 | 123.82693 | 39104 ft | 590 kts | 133° |
| 2026-04-27 18:09 | 37.22204 | 123.90849 | 39103 ft | 590 kts | 133° |
| 2026-04-27 18:09 | 37.18187 | 123.99906 | 38999 ft | 602 kts | 110° |
| 2026-04-27 18:10 | 37.17209 | 124.04983 | 38997 ft | 602 kts | 96° |
| 2026-04-27 18:10 | 37.16989 | 124.10195 | 39008 ft | 599 kts | 87° |
| 2026-04-27 18:10 | 37.17241 | 124.20564 | 39001 ft | 598 kts | 83° |
| 2026-04-27 18:11 | 37.17703 | 124.30654 | 38995 ft | 598 kts | 84° |
| 2026-04-27 18:11 | 37.18039 | 124.41063 | 38990 ft | 599 kts | 85° |
| 2026-04-27 18:12 | 37.18285 | 124.51500 | 38984 ft | 599 kts | 85° |
| 2026-04-27 18:12 | 37.18498 | 124.61907 | 38994 ft | 599 kts | 85° |
| 2026-04-27 18:13 | 37.18714 | 124.72403 | 38987 ft | 599 kts | 85° |
| 2026-04-27 18:13 | 37.18931 | 124.82811 | 38982 ft | 599 kts | 85° |
| 2026-04-27 18:14 | 37.19144 | 124.93225 | 38978 ft | 599 kts | 86° |
| 2026-04-27 18:14 | 37.19341 | 125.03657 | 39010 ft | 599 kts | 86° |
| 2026-04-27 18:15 | 37.19529 | 125.14136 | 38967 ft | 599 kts | 86° |
| 2026-04-27 18:15 | 37.19707 | 125.24513 | 38968 ft | 599 kts | 86° |
| 2026-04-27 18:16 | 37.19879 | 125.35005 | 38961 ft | 599 kts | 86° |
| 2026-04-27 18:16 | 37.20041 | 125.45444 | 38960 ft | 599 kts | 86° |
| 2026-04-27 18:17 | 37.20194 | 125.55833 | 38957 ft | 599 kts | 86° |
| 2026-04-27 18:17 | 37.20335 | 125.66282 | 38953 ft | 598 kts | 86° |
| 2026-04-27 18:18 | 37.20467 | 125.76711 | 38915 ft | 598 kts | 87° |
| 2026-04-27 18:18 | 37.20597 | 125.87157 | 38942 ft | 599 kts | 87° |
| 2026-04-27 18:19 | 37.20711 | 125.97544 | 38951 ft | 599 kts | 87° |
| 2026-04-27 18:19 | 37.20816 | 126.07983 | 38937 ft | 599 kts | 87° |
| 2026-04-27 18:20 | 37.20912 | 126.18414 | 38944 ft | 599 kts | 87° |
| 2026-04-27 18:20 | 37.21001 | 126.28853 | 38928 ft | 599 kts | 87° |
| 2026-04-27 18:21 | 37.21081 | 126.39306 | 38931 ft | 599 kts | 87° |
| 2026-04-27 18:21 | 37.21154 | 126.49749 | 38928 ft | 599 kts | 87° |
| 2026-04-27 18:22 | 37.21216 | 126.60180 | 38924 ft | 600 kts | 88° |
| 2026-04-27 18:22 | 37.21263 | 126.70672 | 38928 ft | 599 kts | 88° |
| 2026-04-27 18:23 | 37.21302 | 126.81091 | 38919 ft | 599 kts | 88° |
| 2026-04-27 18:23 | 37.21494 | 126.91511 | 38921 ft | 596 kts | 80° |
| 2026-04-27 18:24 | 37.22275 | 126.96550 | 38918 ft | 588 kts | 68° |
| 2026-04-27 18:24 | 37.23750 | 127.01293 | 38908 ft | 575 kts | 55° |
| 2026-04-27 18:24 | 37.25844 | 127.05456 | 38917 ft | 559 kts | 43° |
| 2026-04-27 18:24 | 37.28288 | 127.09263 | 38915 ft | 554 kts | 40° |
| 2026-04-27 18:25 | 37.33353 | 127.16431 | 38905 ft | 551 kts | 37° |
| 2026-04-27 18:25 | 37.38519 | 127.23556 | 38872 ft | 551 kts | 37° |
| 2026-04-27 18:26 | 37.43672 | 127.30734 | 38907 ft | 553 kts | 38° |
| 2026-04-27 18:26 | 37.48165 | 127.38788 | 38903 ft | 574 kts | 57° |
| 2026-04-27 18:27 | 37.49578 | 127.43533 | 38915 ft | 584 kts | 70° |
| 2026-04-27 18:27 | 37.50580 | 127.48473 | 38914 ft | 587 kts | 72° |
| 2026-04-27 18:27 | 37.52215 | 127.58532 | 38908 ft | 589 kts | 75° |
| 2026-04-27 18:28 | 37.53722 | 127.68687 | 38907 ft | 589 kts | 75° |
| 2026-04-27 18:28 | 37.55267 | 127.78788 | 38909 ft | 588 kts | 75° |
| 2026-04-27 18:29 | 37.56848 | 127.88896 | 38916 ft | 587 kts | 75° |
| 2026-04-27 18:29 | 37.58436 | 127.98991 | 38896 ft | 586 kts | 75° |
| 2026-04-27 18:30 | 37.60003 | 128.09015 | 38906 ft | 586 kts | 75° |
| 2026-04-27 18:30 | 37.61574 | 128.19152 | 38907 ft | 586 kts | 75° |
| 2026-04-27 18:31 | 37.63117 | 128.29195 | 38903 ft | 584 kts | 75° |
| 2026-04-27 18:31 | 37.64649 | 128.39217 | 38893 ft | 584 kts | 75° |
| 2026-04-27 18:32 | 37.66177 | 128.49278 | 38895 ft | 584 kts | 75° |
| 2026-04-27 18:32 | 37.67699 | 128.59350 | 38895 ft | 583 kts | 75° |
| 2026-04-27 18:33 | 37.68876 | 128.69455 | 38881 ft | 588 kts | 87° |
| 2026-04-27 18:33 | 37.68626 | 128.74646 | 38888 ft | 589 kts | 100° |
| 2026-04-27 18:33 | 37.67611 | 128.79639 | 38887 ft | 584 kts | 114° |
| 2026-04-27 18:34 | 37.63955 | 128.88636 | 38883 ft | 578 kts | 125° |
| 2026-04-27 18:34 | 37.59755 | 128.97286 | 38886 ft | 578 kts | 127° |
| 2026-04-27 18:35 | 37.55504 | 129.05871 | 38892 ft | 577 kts | 127° |
| 2026-04-27 18:35 | 37.51306 | 129.14474 | 38877 ft | 578 kts | 127° |
| 2026-04-27 18:36 | 37.47128 | 129.23111 | 38884 ft | 578 kts | 127° |
| 2026-04-27 18:36 | 37.43637 | 129.30332 | 38884 ft | 578 kts | 127° |
| 2026-04-27 18:37 | 37.39462 | 129.38958 | 38874 ft | 578 kts | 127° |
| 2026-04-27 18:37 | 37.35268 | 129.47576 | 38884 ft | 579 kts | 128° |
| 2026-04-27 18:38 | 37.31061 | 129.56195 | 38881 ft | 579 kts | 128° |
| 2026-04-27 18:38 | 37.26859 | 129.64786 | 38881 ft | 579 kts | 128° |
| 2026-04-27 18:39 | 37.22623 | 129.73425 | 38874 ft | 579 kts | 128° |
| 2026-04-27 18:39 | 37.18408 | 129.82001 | 38865 ft | 579 kts | 129° |
| 2026-04-27 18:40 | 37.14173 | 129.90608 | 38880 ft | 580 kts | 129° |
| 2026-04-27 18:40 | 37.09952 | 129.99146 | 38881 ft | 580 kts | 129° |
| 2026-04-27 18:41 | 37.05700 | 130.07721 | 38880 ft | 581 kts | 129° |
| 2026-04-27 18:41 | 37.01435 | 130.16306 | 38872 ft | 581 kts | 129° |
| 2026-04-27 18:42 | 36.97856 | 130.23497 | 38886 ft | 580 kts | 129° |
| 2026-04-27 18:42 | 36.92893 | 130.33441 | 38886 ft | 579 kts | 129° |
| 2026-04-27 18:43 | 36.88620 | 130.41977 | 38883 ft | 579 kts | 129° |
| 2026-04-27 18:43 | 36.84348 | 130.50491 | 38882 ft | 579 kts | 129° |
| 2026-04-27 18:44 | 36.80075 | 130.58983 | 38889 ft | 578 kts | 130° |
| 2026-04-27 18:44 | 36.75787 | 130.67486 | 38889 ft | 578 kts | 130° |
| 2026-04-27 18:45 | 36.71514 | 130.75943 | 38892 ft | 578 kts | 130° |
| 2026-04-27 18:45 | 36.67218 | 130.84418 | 38892 ft | 578 kts | 130° |
| 2026-04-27 18:46 | 36.63111 | 130.92501 | 38877 ft | 578 kts | 130° |
| 2026-04-27 18:46 | 36.58814 | 131.00939 | 38892 ft | 578 kts | 130° |
| 2026-04-27 18:47 | 36.54499 | 131.09391 | 38896 ft | 578 kts | 130° |
| 2026-04-27 18:47 | 36.50202 | 131.17789 | 38900 ft | 578 kts | 130° |
| 2026-04-27 18:48 | 36.45865 | 131.26243 | 38896 ft | 578 kts | 130° |
| 2026-04-27 18:48 | 36.41536 | 131.34660 | 38894 ft | 578 kts | 130° |
| 2026-04-27 18:49 | 36.38007 | 131.43700 | 38903 ft | 595 kts | 110° |
| 2026-04-27 18:49 | 36.37212 | 131.48751 | 38908 ft | 599 kts | 97° |
| 2026-04-27 18:49 | 36.36847 | 131.53872 | 38907 ft | 600 kts | 94° |
| 2026-04-27 18:50 | 36.36508 | 131.64222 | 38905 ft | 601 kts | 91° |
| 2026-04-27 18:50 | 36.36297 | 131.74577 | 38953 ft | 601 kts | 92° |
| 2026-04-27 18:51 | 36.36019 | 131.84977 | 38913 ft | 602 kts | 92° |
| 2026-04-27 18:51 | 36.35677 | 131.95364 | 38914 ft | 602 kts | 93° |
| 2026-04-27 18:52 | 36.35313 | 132.05726 | 38915 ft | 602 kts | 92° |
| 2026-04-27 18:53 | 36.34759 | 132.21215 | 38939 ft | 601 kts | 93° |
| 2026-04-27 18:53 | 36.34379 | 132.31631 | 38921 ft | 602 kts | 93° |
| 2026-04-27 18:54 | 36.33993 | 132.41972 | 38905 ft | 602 kts | 93° |
| 2026-04-27 18:54 | 36.33596 | 132.52377 | 38921 ft | 602 kts | 93° |
| 2026-04-27 18:55 | 36.33191 | 132.62724 | 38902 ft | 602 kts | 93° |
| 2026-04-27 18:55 | 36.32780 | 132.73020 | 38931 ft | 600 kts | 93° |
| 2026-04-27 18:56 | 36.32359 | 132.83344 | 38930 ft | 601 kts | 93° |
| 2026-04-27 18:56 | 36.31925 | 132.93741 | 38933 ft | 601 kts | 93° |
| 2026-04-27 18:57 | 36.31487 | 133.04046 | 38935 ft | 601 kts | 93° |
| 2026-04-27 18:57 | 36.31038 | 133.14382 | 38933 ft | 600 kts | 94° |
| 2026-04-27 18:58 | 36.30580 | 133.24731 | 38932 ft | 600 kts | 94° |
| 2026-04-27 18:58 | 36.30114 | 133.35031 | 38925 ft | 600 kts | 94° |
| 2026-04-27 18:59 | 36.29639 | 133.45362 | 38932 ft | 600 kts | 94° |
| 2026-04-27 18:59 | 36.29156 | 133.55649 | 38932 ft | 600 kts | 94° |
| 2026-04-27 19:00 | 36.28662 | 133.66001 | 38918 ft | 601 kts | 94° |
| 2026-04-27 19:00 | 36.28160 | 133.76332 | 38938 ft | 601 kts | 94° |
| 2026-04-27 19:01 | 36.27652 | 133.86680 | 38937 ft | 601 kts | 94° |
| 2026-04-27 19:01 | 36.27131 | 133.96976 | 38935 ft | 601 kts | 94° |
| 2026-04-27 19:02 | 36.26600 | 134.07265 | 38942 ft | 601 kts | 94° |
| 2026-04-27 19:02 | 36.26067 | 134.17589 | 38938 ft | 601 kts | 94° |
| 2026-04-27 19:03 | 36.25516 | 134.27936 | 38937 ft | 601 kts | 94° |
| 2026-04-27 19:03 | 36.24954 | 134.38310 | 38927 ft | 601 kts | 94° |
| 2026-04-27 19:04 | 36.24391 | 134.48567 | 38961 ft | 601 kts | 95° |
| 2026-04-27 19:04 | 36.23820 | 134.58925 | 38938 ft | 602 kts | 95° |
| 2026-04-27 19:05 | 36.23233 | 134.69259 | 38935 ft | 602 kts | 95° |
| 2026-04-27 19:05 | 36.22637 | 134.79567 | 38852 ft | 601 kts | 95° |
| 2026-04-27 19:05 | 36.22333 | 134.84779 | 38650 ft | 599 kts | 95° |
| 2026-04-27 19:06 | 36.22036 | 134.89863 | 38377 ft | 599 kts | 95° |
| 2026-04-27 19:06 | 36.21729 | 134.95068 | 38104 ft | 600 kts | 95° |
| 2026-04-27 19:06 | 36.21423 | 135.00228 | 37830 ft | 602 kts | 95° |
| 2026-04-27 19:06 | 36.21115 | 135.05377 | 37558 ft | 603 kts | 95° |
| 2026-04-27 19:07 | 36.20803 | 135.10553 | 37066 ft | 599 kts | 95° |
| 2026-04-27 19:07 | 36.20491 | 135.15670 | 36483 ft | 596 kts | 96° |
| 2026-04-27 19:07 | 36.19846 | 135.20663 | 35868 ft | 591 kts | 108° |
| 2026-04-27 19:07 | 36.18517 | 135.25411 | 35329 ft | 579 kts | 121° |
| 2026-04-27 19:08 | 36.16793 | 135.29906 | 34847 ft | 572 kts | 123° |
| 2026-04-27 19:08 | 36.14972 | 135.34248 | 34362 ft | 566 kts | 125° |
| 2026-04-27 19:08 | 36.13106 | 135.38484 | 33909 ft | 562 kts | 126° |
| 2026-04-27 19:08 | 36.11200 | 135.42720 | 33402 ft | 558 kts | 126° |
| 2026-04-27 19:09 | 36.09331 | 135.46858 | 32946 ft | 553 kts | 126° |
| 2026-04-27 19:09 | 36.07465 | 135.51006 | 32476 ft | 549 kts | 126° |
| 2026-04-27 19:09 | 36.05616 | 135.55139 | 32004 ft | 545 kts | 126° |
| 2026-04-27 19:09 | 36.03803 | 135.59210 | 31575 ft | 540 kts | 126° |
| 2026-04-27 19:10 | 36.01992 | 135.63287 | 31128 ft | 536 kts | 126° |
| 2026-04-27 19:10 | 36.00206 | 135.67309 | 30690 ft | 532 kts | 126° |
| 2026-04-27 19:10 | 35.98441 | 135.71284 | 30252 ft | 528 kts | 126° |
| 2026-04-27 19:10 | 35.97263 | 135.73934 | 29940 ft | 526 kts | 126° |
| 2026-04-27 19:11 | 35.94939 | 135.79153 | 29335 ft | 519 kts | 126° |
| 2026-04-27 19:11 | 35.93213 | 135.83032 | 28925 ft | 514 kts | 126° |
| 2026-04-27 19:11 | 35.91496 | 135.86880 | 28643 ft | 514 kts | 126° |
| 2026-04-27 19:11 | 35.89752 | 135.90768 | 28363 ft | 514 kts | 126° |
| 2026-04-27 19:12 | 35.88023 | 135.94619 | 28105 ft | 513 kts | 126° |
| 2026-04-27 19:12 | 35.86306 | 135.98442 | 27703 ft | 511 kts | 125° |
| 2026-04-27 19:12 | 35.84600 | 136.02244 | 27272 ft | 508 kts | 125° |
| 2026-04-27 19:12 | 35.82886 | 136.06060 | 26807 ft | 504 kts | 125° |
| 2026-04-27 19:13 | 35.81203 | 136.09807 | 26362 ft | 500 kts | 125° |
| 2026-04-27 19:13 | 35.79521 | 136.13543 | 25918 ft | 496 kts | 125° |
| 2026-04-27 19:13 | 35.77806 | 136.17187 | 25504 ft | 488 kts | 130° |
| 2026-04-27 19:13 | 35.75656 | 136.20306 | 25084 ft | 469 kts | 147° |
| 2026-04-27 19:14 | 35.73066 | 136.22629 | 24661 ft | 454 kts | 157° |
| 2026-04-27 19:14 | 35.70383 | 136.24571 | 24246 ft | 447 kts | 161° |
| 2026-04-27 19:14 | 35.67616 | 136.26356 | 23812 ft | 441 kts | 163° |
| 2026-04-27 19:14 | 35.64903 | 136.28032 | 23058 ft | 445 kts | 162° |
| 2026-04-27 19:15 | 35.62139 | 136.29783 | 22461 ft | 444 kts | 161° |
| 2026-04-27 19:15 | 35.59443 | 136.31559 | 22016 ft | 440 kts | 160° |
| 2026-04-27 19:15 | 35.56760 | 136.33375 | 21583 ft | 436 kts | 160° |
| 2026-04-27 19:15 | 35.54112 | 136.35181 | 21132 ft | 429 kts | 160° |
| 2026-04-27 19:16 | 35.51545 | 136.36930 | 20708 ft | 423 kts | 160° |
| 2026-04-27 19:16 | 35.49837 | 136.38080 | 20441 ft | 419 kts | 160° |
| 2026-04-27 19:16 | 35.46433 | 136.40355 | 19865 ft | 415 kts | 160° |
| 2026-04-27 19:16 | 35.43896 | 136.42052 | 19442 ft | 410 kts | 160° |
| 2026-04-27 19:17 | 35.41412 | 136.43710 | 19024 ft | 405 kts | 160° |
| 2026-04-27 19:17 | 35.38958 | 136.45348 | 18619 ft | 400 kts | 160° |
| 2026-04-27 19:17 | 35.36548 | 136.46957 | 18192 ft | 396 kts | 160° |
| 2026-04-27 19:17 | 35.34059 | 136.48286 | 17746 ft | 378 kts | 173° |
| 2026-04-27 19:18 | 35.31554 | 136.48811 | 17370 ft | 361 kts | 183° |
| 2026-04-27 19:18 | 35.29069 | 136.49079 | 16995 ft | 355 kts | 184° |
| 2026-04-27 19:18 | 35.26614 | 136.49314 | 16625 ft | 350 kts | 184° |
| 2026-04-27 19:18 | 35.24209 | 136.49544 | 16268 ft | 345 kts | 184° |
| 2026-04-27 19:19 | 35.21837 | 136.49775 | 15883 ft | 341 kts | 184° |
| 2026-04-27 19:19 | 35.19496 | 136.50009 | 15547 ft | 336 kts | 184° |
| 2026-04-27 19:19 | 35.17187 | 136.50243 | 15201 ft | 332 kts | 183° |
| 2026-04-27 19:19 | 35.14879 | 136.50475 | 14839 ft | 330 kts | 183° |
| 2026-04-27 19:20 | 35.12607 | 136.50703 | 14503 ft | 329 kts | 183° |
| 2026-04-27 19:20 | 35.10336 | 136.50933 | 14157 ft | 328 kts | 182° |
| 2026-04-27 19:20 | 35.08071 | 136.51163 | 13811 ft | 326 kts | 182° |
| 2026-04-27 19:20 | 35.05802 | 136.51394 | 13431 ft | 324 kts | 182° |
| 2026-04-27 19:21 | 35.03572 | 136.51621 | 13074 ft | 323 kts | 182° |
| 2026-04-27 19:21 | 35.01338 | 136.51847 | 12729 ft | 322 kts | 182° |
| 2026-04-27 19:21 | 34.99103 | 136.52074 | 12381 ft | 320 kts | 182° |
| 2026-04-27 19:21 | 34.96900 | 136.52299 | 12010 ft | 318 kts | 181° |
| 2026-04-27 19:22 | 34.94692 | 136.52527 | 11632 ft | 316 kts | 181° |
| 2026-04-27 19:22 | 34.92512 | 136.52749 | 11263 ft | 314 kts | 181° |
| 2026-04-27 19:22 | 34.90351 | 136.52967 | 10891 ft | 313 kts | 181° |
| 2026-04-27 19:22 | 34.88198 | 136.53184 | 10580 ft | 309 kts | 181° |
| 2026-04-27 19:23 | 34.86101 | 136.53400 | 10432 ft | 297 kts | 181° |
| 2026-04-27 19:23 | 34.84064 | 136.53610 | 10286 ft | 285 kts | 181° |
| 2026-04-27 19:23 | 34.82127 | 136.53810 | 10167 ft | 275 kts | 181° |
| 2026-04-27 19:23 | 34.80251 | 136.53998 | 9904 ft | 273 kts | 181° |
| 2026-04-27 19:24 | 34.78275 | 136.54188 | 9728 ft | 288 kts | 181° |
| 2026-04-27 19:24 | 34.76286 | 136.54385 | 9548 ft | 288 kts | 180° |
| 2026-04-27 19:24 | 34.74286 | 136.54607 | 9049 ft | 291 kts | 177° |
| 2026-04-27 19:24 | 34.72348 | 136.55336 | 8660 ft | 297 kts | 154° |
| 2026-04-27 19:25 | 34.70790 | 136.57022 | 8340 ft | 302 kts | 132° |
| 2026-04-27 19:25 | 34.69540 | 136.59050 | 8014 ft | 301 kts | 128° |
| 2026-04-27 19:25 | 34.68344 | 136.61109 | 7703 ft | 299 kts | 127° |
| 2026-04-27 19:25 | 34.67151 | 136.63157 | 7390 ft | 296 kts | 127° |
| 2026-04-27 19:26 | 34.65946 | 136.65206 | 7081 ft | 294 kts | 127° |
| 2026-04-27 19:26 | 34.64764 | 136.67199 | 6769 ft | 291 kts | 127° |
| 2026-04-27 19:26 | 34.63577 | 136.69193 | 6463 ft | 288 kts | 127° |
| 2026-04-27 19:26 | 34.62410 | 136.71150 | 6163 ft | 286 kts | 127° |
| 2026-04-27 19:27 | 34.61255 | 136.73082 | 5874 ft | 284 kts | 127° |
| 2026-04-27 19:27 | 34.60092 | 136.75026 | 5562 ft | 283 kts | 127° |
| 2026-04-27 19:27 | 34.58946 | 136.76945 | 5268 ft | 280 kts | 126° |
| 2026-04-27 19:27 | 34.58079 | 136.79034 | 5083 ft | 272 kts | 104° |
| 2026-04-27 19:28 | 34.58012 | 136.81260 | 4944 ft | 260 kts | 82° |
| 2026-04-27 19:28 | 34.58326 | 136.83365 | 4800 ft | 249 kts | 76° |
| 2026-04-27 19:28 | 34.59003 | 136.85214 | 4633 ft | 235 kts | 49° |
| 2026-04-27 19:28 | 34.60307 | 136.86224 | 4517 ft | 216 kts | 11° |
| 2026-04-27 19:29 | 34.61740 | 136.86326 | 4497 ft | 198 kts | 351° |
| 2026-04-27 19:29 | 34.63043 | 136.86027 | 4362 ft | 188 kts | 344° |
| 2026-04-27 19:29 | 34.64313 | 136.85696 | 4108 ft | 188 kts | 346° |
| 2026-04-27 19:29 | 34.65613 | 136.85395 | 3793 ft | 188 kts | 347° |
| 2026-04-27 19:30 | 34.66898 | 136.85091 | 3479 ft | 188 kts | 347° |
| 2026-04-27 19:30 | 34.68169 | 136.84785 | 3208 ft | 186 kts | 347° |
| 2026-04-27 19:30 | 34.69434 | 136.84481 | 2958 ft | 185 kts | 347° |
| 2026-04-27 19:30 | 34.70689 | 136.84180 | 2733 ft | 185 kts | 347° |
| 2026-04-27 19:31 | 34.71957 | 136.83876 | 2480 ft | 184 kts | 347° |
| 2026-04-27 19:31 | 34.72782 | 136.83678 | 2327 ft | 184 kts | 348° |
| 2026-04-27 19:31 | 34.74034 | 136.83377 | 2072 ft | 183 kts | 348° |
| 2026-04-27 19:31 | 34.75705 | 136.82976 | 1752 ft | 181 kts | 348° |
| 2026-04-27 19:32 | 34.76895 | 136.82690 | 1507 ft | 170 kts | 348° |
| 2026-04-27 19:32 | 34.77657 | 136.82506 | 1360 ft | 163 kts | 349° |
| 2026-04-27 19:32 | 34.79074 | 136.82166 | 1075 ft | 150 kts | 349° |
| 2026-04-27 19:32 | 34.80068 | 136.81926 | 888 ft | 143 kts | 349° |
| 2026-04-27 19:33 | 34.80719 | 136.81768 | 762 ft | 143 kts | 349° |
| 2026-04-27 19:33 | 34.81375 | 136.81603 | 653 ft | 143 kts | 348° |
| 2026-04-27 19:33 | 34.82686 | 136.81282 | 410 ft | 144 kts | 350° |
| 2026-04-27 19:33 | 34.83668 | 136.81056 | 206 ft | 143 kts | 350° |
| 2026-04-27 19:34 | 34.84642 | 136.80827 | 41 ft | 141 kts | 348° |
| 2026-04-27 19:34 | 34.85487 | 136.80622 | 28 ft | 96 kts | 349° |
| 2026-04-27 19:34 | 34.85901 | 136.80520 | 30 ft | 45 kts | 348° |
| 2026-04-27 19:34 | 34.86146 | 136.80501 | 32 ft | 22 kts | 11° |
| 2026-04-27 19:35 | 34.86279 | 136.80545 | 34 ft | 12 kts | 21° |
| 2026-04-27 19:35 | 34.86335 | 136.80570 | 34 ft | 9 kts | 20° |
| 2026-04-27 19:35 | 34.86400 | 136.80600 | 34 ft | 11 kts | 20° |
| 2026-04-27 19:35 | 34.86455 | 136.80661 | 34 ft | 11 kts | 70° |
| 2026-04-27 19:36 | 34.86472 | 136.80747 | 35 ft | 8 kts | 77° |
| 2026-04-27 19:36 | 34.86473 | 136.80809 | 35 ft | 8 kts | 107° |
| 2026-04-27 19:36 | 34.86429 | 136.80848 | 35 ft | 9 kts | 163° |
| 2026-04-27 19:36 | 34.86412 | 136.80852 | 35 ft | 0 kts | 168° |
| 2026-04-27 19:39 | 34.86404 | 136.80854 | 35 ft | 3 kts | 168° |
| 2026-04-27 19:39 | 34.86366 | 136.80864 | 35 ft | 8 kts | 168° |
| 2026-04-27 19:39 | 34.86337 | 136.80921 | 35 ft | 10 kts | 91° |
| 2026-04-27 19:39 | 34.86349 | 136.81012 | 35 ft | 12 kts | 78° |
| 2026-04-27 19:40 | 34.86329 | 136.81100 | 35 ft | 11 kts | 140° |
| 2026-04-27 19:40 | 34.86251 | 136.81127 | 35 ft | 12 kts | 169° |
| 2026-04-27 19:40 | 34.86167 | 136.81147 | 35 ft | 13 kts | 169° |
| 2026-04-27 19:40 | 34.86077 | 136.81168 | 35 ft | 10 kts | 168° |
| 2026-04-27 19:41 | 34.86025 | 136.81203 | 35 ft | 9 kts | 131° |
| 2026-04-27 19:41 | 34.86002 | 136.81246 | 35 ft | 3 kts | 121° |
| 2026-04-27 19:41 | 34.85992 | 136.81265 | 35 ft | 1 kts | 120° |
| 2026-04-27 19:41 | 34.85991 | 136.81267 | 35 ft | 0 kts | 120° |
| 2026-04-27 19:42 | 34.85991 | 136.81268 | 35 ft | 0 kts | 120° |
| 2026-04-27 19:42 | 34.85989 | 136.81273 | 35 ft | 0 kts | 120° |
| 2026-04-27 19:42 | 34.85987 | 136.81276 | 35 ft | 0 kts | 120° |